<?xml version="1.0" encoding="UTF-8" standalone="no" ?>
<gpx xmlns="http://www.topografix.com/GPX/1/1" xmlns:xsi="http://www.w3.org/2001/XMLSchema-instance" xsi:schemaLocation="http://www.topografix.com/GPX/1/1 http://www.topografix.com/GPX/1/1/gpx.xsd" version="1.1" creator="VisuGPX - https://www.visugpx.com">
  <metadata>
    <name>Parcours mercredi 28.04.2021</name>
    <desc><![CDATA[[url][/url]]]></desc>
  </metadata>
  <wpt lat="47.53034" lon="-2.25892">
    <ele>29</ele>
    <name><![CDATA[Parcours mercredi 28.04.2021]]></name>
    <type><![CDATA[Generic]]></type>
  </wpt>
  <trk>
    <name><![CDATA[Parcours mercredi 28.04.2021]]></name>
    <trkseg>
      <trkpt lat="47.53034" lon="-2.25892">
        <ele>29</ele>
        <time>2021-04-27T14:21:53Z</time>
      </trkpt>
      <trkpt lat="47.53" lon="-2.25844">
        <ele>28.4</ele>
        <time>2021-04-27T14:22:05Z</time>
      </trkpt>
      <trkpt lat="47.52977" lon="-2.25805">
        <ele>28</ele>
        <time>2021-04-27T14:22:17Z</time>
      </trkpt>
      <trkpt lat="47.52973" lon="-2.25792">
        <ele>28</ele>
        <time>2021-04-27T14:22:20Z</time>
      </trkpt>
      <trkpt lat="47.52953" lon="-2.25753">
        <ele>27.4</ele>
        <time>2021-04-27T14:22:31Z</time>
      </trkpt>
      <trkpt lat="47.52935" lon="-2.25726">
        <ele>27.6</ele>
        <time>2021-04-27T14:22:44Z</time>
      </trkpt>
      <trkpt lat="47.52911" lon="-2.25702">
        <ele>27</ele>
        <time>2021-04-27T14:22:55Z</time>
      </trkpt>
      <trkpt lat="47.52853" lon="-2.25672">
        <ele>26.1</ele>
        <time>2021-04-27T14:22:57Z</time>
      </trkpt>
      <trkpt lat="47.52742" lon="-2.25632">
        <ele>25</ele>
        <time>2021-04-27T14:23:11Z</time>
      </trkpt>
      <trkpt lat="47.52585" lon="-2.25513">
        <ele>24.9</ele>
        <time>2021-04-27T14:23:19Z</time>
      </trkpt>
      <trkpt lat="47.52506" lon="-2.25244">
        <ele>27</ele>
        <time>2021-04-27T14:23:30Z</time>
      </trkpt>
      <trkpt lat="47.52377" lon="-2.24991">
        <ele>26</ele>
        <time>2021-04-27T14:23:45Z</time>
      </trkpt>
      <trkpt lat="47.52341" lon="-2.24902">
        <ele>25.9</ele>
        <time>2021-04-27T14:23:58Z</time>
      </trkpt>
      <trkpt lat="47.52307" lon="-2.24809">
        <ele>25</ele>
        <time>2021-04-27T14:24:13Z</time>
      </trkpt>
      <trkpt lat="47.52288" lon="-2.24697">
        <ele>25.6</ele>
        <time>2021-04-27T14:24:31Z</time>
      </trkpt>
      <trkpt lat="47.52258" lon="-2.24601">
        <ele>26</ele>
        <time>2021-04-27T14:24:48Z</time>
      </trkpt>
      <trkpt lat="47.52279" lon="-2.24215">
        <ele>27.2</ele>
        <time>2021-04-27T14:24:59Z</time>
      </trkpt>
      <trkpt lat="47.52269" lon="-2.24128">
        <ele>27.7</ele>
        <time>2021-04-27T14:25:08Z</time>
      </trkpt>
      <trkpt lat="47.52239" lon="-2.23995">
        <ele>29.3</ele>
        <time>2021-04-27T14:25:15Z</time>
      </trkpt>
      <trkpt lat="47.52233" lon="-2.23914">
        <ele>28.3</ele>
        <time>2021-04-27T14:25:27Z</time>
      </trkpt>
      <trkpt lat="47.52204" lon="-2.23776">
        <ele>29</ele>
        <time>2021-04-27T14:25:36Z</time>
      </trkpt>
      <trkpt lat="47.52227" lon="-2.2365">
        <ele>30.5</ele>
        <time>2021-04-27T14:25:39Z</time>
      </trkpt>
      <trkpt lat="47.52249" lon="-2.23608">
        <ele>30</ele>
        <time>2021-04-27T14:25:52Z</time>
      </trkpt>
      <trkpt lat="47.52252" lon="-2.23576">
        <ele>29.9</ele>
        <time>2021-04-27T14:26:07Z</time>
      </trkpt>
      <trkpt lat="47.52247" lon="-2.23391">
        <ele>28</ele>
        <time>2021-04-27T14:26:15Z</time>
      </trkpt>
      <trkpt lat="47.5223" lon="-2.23349">
        <ele>28</ele>
        <time>2021-04-27T14:26:17Z</time>
      </trkpt>
      <trkpt lat="47.52078" lon="-2.23195">
        <ele>33</ele>
        <time>2021-04-27T14:26:30Z</time>
      </trkpt>
      <trkpt lat="47.52016" lon="-2.23101">
        <ele>34.4</ele>
        <time>2021-04-27T14:26:41Z</time>
      </trkpt>
      <trkpt lat="47.51872" lon="-2.22951">
        <ele>37</ele>
        <time>2021-04-27T14:26:44Z</time>
      </trkpt>
      <trkpt lat="47.51704" lon="-2.22677">
        <ele>40.9</ele>
        <time>2021-04-27T14:26:55Z</time>
      </trkpt>
      <trkpt lat="47.517" lon="-2.22381">
        <ele>43.3</ele>
        <time>2021-04-27T14:27:06Z</time>
      </trkpt>
      <trkpt lat="47.51701" lon="-2.2227">
        <ele>45.2</ele>
        <time>2021-04-27T14:27:22Z</time>
      </trkpt>
      <trkpt lat="47.51623" lon="-2.21817">
        <ele>51.6</ele>
        <time>2021-04-27T14:27:32Z</time>
      </trkpt>
      <trkpt lat="47.51613" lon="-2.21779">
        <ele>52</ele>
        <time>2021-04-27T14:27:34Z</time>
      </trkpt>
      <trkpt lat="47.51559" lon="-2.21655">
        <ele>54</ele>
        <time>2021-04-27T14:27:46Z</time>
      </trkpt>
      <trkpt lat="47.51529" lon="-2.21592">
        <ele>55</ele>
        <time>2021-04-27T14:27:53Z</time>
      </trkpt>
      <trkpt lat="47.51519" lon="-2.21576">
        <ele>55.3</ele>
        <time>2021-04-27T14:27:57Z</time>
      </trkpt>
      <trkpt lat="47.51504" lon="-2.21561">
        <ele>55.9</ele>
        <time>2021-04-27T14:28:04Z</time>
      </trkpt>
      <trkpt lat="47.5132" lon="-2.21432">
        <ele>55.7</ele>
        <time>2021-04-27T14:28:13Z</time>
      </trkpt>
      <trkpt lat="47.51304" lon="-2.21429">
        <ele>55.5</ele>
        <time>2021-04-27T14:28:31Z</time>
      </trkpt>
      <trkpt lat="47.51299" lon="-2.21412">
        <ele>55.8</ele>
        <time>2021-04-27T14:28:45Z</time>
      </trkpt>
      <trkpt lat="47.51031" lon="-2.2085">
        <ele>57</ele>
        <time>2021-04-27T14:29:02Z</time>
      </trkpt>
      <trkpt lat="47.5102" lon="-2.20813">
        <ele>57</ele>
        <time>2021-04-27T14:29:20Z</time>
      </trkpt>
      <trkpt lat="47.51018" lon="-2.20796">
        <ele>57</ele>
        <time>2021-04-27T14:29:35Z</time>
      </trkpt>
      <trkpt lat="47.51017" lon="-2.20753">
        <ele>57</ele>
        <time>2021-04-27T14:29:41Z</time>
      </trkpt>
      <trkpt lat="47.51022" lon="-2.20575">
        <ele>56.1</ele>
        <time>2021-04-27T14:29:46Z</time>
      </trkpt>
      <trkpt lat="47.51099" lon="-2.1999">
        <ele>50.8</ele>
        <time>2021-04-27T14:29:48Z</time>
      </trkpt>
      <trkpt lat="47.5114" lon="-2.19645">
        <ele>54.8</ele>
        <time>2021-04-27T14:30:02Z</time>
      </trkpt>
      <trkpt lat="47.51225" lon="-2.19007">
        <ele>61</ele>
        <time>2021-04-27T14:30:07Z</time>
      </trkpt>
      <trkpt lat="47.51232" lon="-2.18973">
        <ele>61</ele>
        <time>2021-04-27T14:30:25Z</time>
      </trkpt>
      <trkpt lat="47.51243" lon="-2.18931">
        <ele>61</ele>
        <time>2021-04-27T14:30:40Z</time>
      </trkpt>
      <trkpt lat="47.51394" lon="-2.18405">
        <ele>62</ele>
        <time>2021-04-27T14:30:54Z</time>
      </trkpt>
      <trkpt lat="47.5144" lon="-2.18225">
        <ele>62</ele>
        <time>2021-04-27T14:30:57Z</time>
      </trkpt>
      <trkpt lat="47.51594" lon="-2.17672">
        <ele>58</ele>
        <time>2021-04-27T14:31:06Z</time>
      </trkpt>
      <trkpt lat="47.51591" lon="-2.1767">
        <ele>58</ele>
        <time>2021-04-27T14:31:19Z</time>
      </trkpt>
      <trkpt lat="47.51493" lon="-2.17699">
        <ele>59</ele>
        <time>2021-04-27T14:31:21Z</time>
      </trkpt>
      <trkpt lat="47.51033" lon="-2.17823">
        <ele>56</ele>
        <time>2021-04-27T14:31:23Z</time>
      </trkpt>
      <trkpt lat="47.50805" lon="-2.17833">
        <ele>53</ele>
        <time>2021-04-27T14:31:31Z</time>
      </trkpt>
      <trkpt lat="47.50604" lon="-2.1782">
        <ele>52.5</ele>
        <time>2021-04-27T14:31:35Z</time>
      </trkpt>
      <trkpt lat="47.50543" lon="-2.17829">
        <ele>53.4</ele>
        <time>2021-04-27T14:31:44Z</time>
      </trkpt>
      <trkpt lat="47.505" lon="-2.17802">
        <ele>53</ele>
        <time>2021-04-27T14:31:56Z</time>
      </trkpt>
      <trkpt lat="47.50403" lon="-2.17662">
        <ele>51.8</ele>
        <time>2021-04-27T14:32:13Z</time>
      </trkpt>
      <trkpt lat="47.50363" lon="-2.17602">
        <ele>50.7</ele>
        <time>2021-04-27T14:32:32Z</time>
      </trkpt>
      <trkpt lat="47.50334" lon="-2.17574">
        <ele>50</ele>
        <time>2021-04-27T14:32:38Z</time>
      </trkpt>
      <trkpt lat="47.50304" lon="-2.17572">
        <ele>50</ele>
        <time>2021-04-27T14:32:51Z</time>
      </trkpt>
      <trkpt lat="47.50265" lon="-2.17599">
        <ele>50.6</ele>
        <time>2021-04-27T14:33:11Z</time>
      </trkpt>
      <trkpt lat="47.50116" lon="-2.17719">
        <ele>48.1</ele>
        <time>2021-04-27T14:33:21Z</time>
      </trkpt>
      <trkpt lat="47.50046" lon="-2.17432">
        <ele>41.6</ele>
        <time>2021-04-27T14:33:37Z</time>
      </trkpt>
      <trkpt lat="47.50028" lon="-2.17383">
        <ele>40</ele>
        <time>2021-04-27T14:33:54Z</time>
      </trkpt>
      <trkpt lat="47.49986" lon="-2.17348">
        <ele>39.5</ele>
        <time>2021-04-27T14:34:09Z</time>
      </trkpt>
      <trkpt lat="47.49946" lon="-2.1734">
        <ele>39</ele>
        <time>2021-04-27T14:34:19Z</time>
      </trkpt>
      <trkpt lat="47.49806" lon="-2.17302">
        <ele>41</ele>
        <time>2021-04-27T14:34:30Z</time>
      </trkpt>
      <trkpt lat="47.49767" lon="-2.17192">
        <ele>39.7</ele>
        <time>2021-04-27T14:34:39Z</time>
      </trkpt>
      <trkpt lat="47.49655" lon="-2.16915">
        <ele>38.9</ele>
        <time>2021-04-27T14:34:59Z</time>
      </trkpt>
      <trkpt lat="47.49566" lon="-2.17022">
        <ele>44.4</ele>
        <time>2021-04-27T14:35:06Z</time>
      </trkpt>
      <trkpt lat="47.49472" lon="-2.17097">
        <ele>46</ele>
        <time>2021-04-27T14:35:15Z</time>
      </trkpt>
      <trkpt lat="47.49444" lon="-2.17101">
        <ele>46.4</ele>
        <time>2021-04-27T14:35:29Z</time>
      </trkpt>
      <trkpt lat="47.49326" lon="-2.17071">
        <ele>43.7</ele>
        <time>2021-04-27T14:35:46Z</time>
      </trkpt>
      <trkpt lat="47.49132" lon="-2.17066">
        <ele>35.7</ele>
        <time>2021-04-27T14:35:50Z</time>
      </trkpt>
      <trkpt lat="47.49104" lon="-2.17072">
        <ele>34.9</ele>
        <time>2021-04-27T14:35:53Z</time>
      </trkpt>
      <trkpt lat="47.49092" lon="-2.171">
        <ele>35.2</ele>
        <time>2021-04-27T14:35:57Z</time>
      </trkpt>
      <trkpt lat="47.49061" lon="-2.17076">
        <ele>33.9</ele>
        <time>2021-04-27T14:36:13Z</time>
      </trkpt>
      <trkpt lat="47.48878" lon="-2.17043">
        <ele>34</ele>
        <time>2021-04-27T14:36:28Z</time>
      </trkpt>
      <trkpt lat="47.48832" lon="-2.17047">
        <ele>34.7</ele>
        <time>2021-04-27T14:36:31Z</time>
      </trkpt>
      <trkpt lat="47.48787" lon="-2.17041">
        <ele>35</ele>
        <time>2021-04-27T14:36:42Z</time>
      </trkpt>
      <trkpt lat="47.48749" lon="-2.17023">
        <ele>35</ele>
        <time>2021-04-27T14:36:56Z</time>
      </trkpt>
      <trkpt lat="47.48714" lon="-2.16997">
        <ele>34.7</ele>
        <time>2021-04-27T14:36:59Z</time>
      </trkpt>
      <trkpt lat="47.48687" lon="-2.1696">
        <ele>33.7</ele>
        <time>2021-04-27T14:37:03Z</time>
      </trkpt>
      <trkpt lat="47.4867" lon="-2.16922">
        <ele>33.1</ele>
        <time>2021-04-27T14:37:10Z</time>
      </trkpt>
      <trkpt lat="47.4866" lon="-2.16878">
        <ele>33.1</ele>
        <time>2021-04-27T14:37:16Z</time>
      </trkpt>
      <trkpt lat="47.48526" lon="-2.16482">
        <ele>22.6</ele>
        <time>2021-04-27T14:37:34Z</time>
      </trkpt>
      <trkpt lat="47.4852" lon="-2.16452">
        <ele>22.9</ele>
        <time>2021-04-27T14:37:54Z</time>
      </trkpt>
      <trkpt lat="47.48517" lon="-2.16419">
        <ele>24.3</ele>
        <time>2021-04-27T14:37:59Z</time>
      </trkpt>
      <trkpt lat="47.48515" lon="-2.16331">
        <ele>28</ele>
        <time>2021-04-27T14:38:05Z</time>
      </trkpt>
      <trkpt lat="47.48511" lon="-2.16304">
        <ele>29.7</ele>
        <time>2021-04-27T14:38:24Z</time>
      </trkpt>
      <trkpt lat="47.4846" lon="-2.16328">
        <ele>29</ele>
        <time>2021-04-27T14:38:41Z</time>
      </trkpt>
      <trkpt lat="47.48458" lon="-2.16347">
        <ele>28</ele>
        <time>2021-04-27T14:38:55Z</time>
      </trkpt>
      <trkpt lat="47.48452" lon="-2.16362">
        <ele>27.3</ele>
        <time>2021-04-27T14:39:12Z</time>
      </trkpt>
      <trkpt lat="47.48444" lon="-2.16377">
        <ele>27</ele>
        <time>2021-04-27T14:39:19Z</time>
      </trkpt>
      <trkpt lat="47.48427" lon="-2.16388">
        <ele>26.4</ele>
        <time>2021-04-27T14:39:28Z</time>
      </trkpt>
      <trkpt lat="47.48397" lon="-2.16401">
        <ele>25.3</ele>
        <time>2021-04-27T14:39:40Z</time>
      </trkpt>
      <trkpt lat="47.48348" lon="-2.16412">
        <ele>24.2</ele>
        <time>2021-04-27T14:40:00Z</time>
      </trkpt>
      <trkpt lat="47.48334" lon="-2.16419">
        <ele>24</ele>
        <time>2021-04-27T14:40:03Z</time>
      </trkpt>
      <trkpt lat="47.48291" lon="-2.1645">
        <ele>23.8</ele>
        <time>2021-04-27T14:40:05Z</time>
      </trkpt>
      <trkpt lat="47.48287" lon="-2.1645">
        <ele>23.8</ele>
        <time>2021-04-27T14:40:11Z</time>
      </trkpt>
      <trkpt lat="47.48241" lon="-2.16401">
        <ele>24.9</ele>
        <time>2021-04-27T14:40:23Z</time>
      </trkpt>
      <trkpt lat="47.48224" lon="-2.16382">
        <ele>25</ele>
        <time>2021-04-27T14:40:33Z</time>
      </trkpt>
      <trkpt lat="47.48216" lon="-2.16379">
        <ele>25</ele>
        <time>2021-04-27T14:40:36Z</time>
      </trkpt>
      <trkpt lat="47.48209" lon="-2.16481">
        <ele>23.3</ele>
        <time>2021-04-27T14:40:49Z</time>
      </trkpt>
      <trkpt lat="47.48174" lon="-2.16474">
        <ele>23</ele>
        <time>2021-04-27T14:41:03Z</time>
      </trkpt>
      <trkpt lat="47.48162" lon="-2.16468">
        <ele>23.3</ele>
        <time>2021-04-27T14:41:20Z</time>
      </trkpt>
      <trkpt lat="47.48148" lon="-2.16457">
        <ele>23.9</ele>
        <time>2021-04-27T14:41:40Z</time>
      </trkpt>
      <trkpt lat="47.48138" lon="-2.16444">
        <ele>24</ele>
        <time>2021-04-27T14:41:43Z</time>
      </trkpt>
      <trkpt lat="47.48129" lon="-2.16422">
        <ele>24</ele>
        <time>2021-04-27T14:41:58Z</time>
      </trkpt>
      <trkpt lat="47.48123" lon="-2.16424">
        <ele>24</ele>
        <time>2021-04-27T14:42:09Z</time>
      </trkpt>
      <trkpt lat="47.48118" lon="-2.16421">
        <ele>24</ele>
        <time>2021-04-27T14:42:19Z</time>
      </trkpt>
      <trkpt lat="47.48115" lon="-2.16415">
        <ele>24</ele>
        <time>2021-04-27T14:42:26Z</time>
      </trkpt>
      <trkpt lat="47.48099" lon="-2.16396">
        <ele>24.4</ele>
        <time>2021-04-27T14:42:41Z</time>
      </trkpt>
      <trkpt lat="47.47933" lon="-2.16344">
        <ele>31.4</ele>
        <time>2021-04-27T14:43:00Z</time>
      </trkpt>
      <trkpt lat="47.4793" lon="-2.16317">
        <ele>31.5</ele>
        <time>2021-04-27T14:43:09Z</time>
      </trkpt>
      <trkpt lat="47.47912" lon="-2.16253">
        <ele>32.9</ele>
        <time>2021-04-27T14:43:24Z</time>
      </trkpt>
      <trkpt lat="47.47912" lon="-2.16243">
        <ele>33</ele>
        <time>2021-04-27T14:43:43Z</time>
      </trkpt>
      <trkpt lat="47.47909" lon="-2.1624">
        <ele>33.1</ele>
        <time>2021-04-27T14:44:03Z</time>
      </trkpt>
      <trkpt lat="47.47886" lon="-2.16157">
        <ele>35</ele>
        <time>2021-04-27T14:44:08Z</time>
      </trkpt>
      <trkpt lat="47.47874" lon="-2.1612">
        <ele>35.8</ele>
        <time>2021-04-27T14:44:12Z</time>
      </trkpt>
      <trkpt lat="47.47798" lon="-2.16176">
        <ele>35</ele>
        <time>2021-04-27T14:44:28Z</time>
      </trkpt>
      <trkpt lat="47.47737" lon="-2.16226">
        <ele>34.9</ele>
        <time>2021-04-27T14:44:46Z</time>
      </trkpt>
      <trkpt lat="47.47727" lon="-2.16238">
        <ele>34.5</ele>
        <time>2021-04-27T14:44:53Z</time>
      </trkpt>
      <trkpt lat="47.47721" lon="-2.1625">
        <ele>34</ele>
        <time>2021-04-27T14:45:07Z</time>
      </trkpt>
      <trkpt lat="47.47716" lon="-2.16247">
        <ele>34.1</ele>
        <time>2021-04-27T14:45:11Z</time>
      </trkpt>
      <trkpt lat="47.47711" lon="-2.16252">
        <ele>34</ele>
        <time>2021-04-27T14:45:29Z</time>
      </trkpt>
      <trkpt lat="47.4771" lon="-2.16258">
        <ele>34</ele>
        <time>2021-04-27T14:45:32Z</time>
      </trkpt>
      <trkpt lat="47.47698" lon="-2.16264">
        <ele>34</ele>
        <time>2021-04-27T14:45:45Z</time>
      </trkpt>
      <trkpt lat="47.47671" lon="-2.16293">
        <ele>33.1</ele>
        <time>2021-04-27T14:45:50Z</time>
      </trkpt>
      <trkpt lat="47.47605" lon="-2.16373">
        <ele>32</ele>
        <time>2021-04-27T14:46:06Z</time>
      </trkpt>
      <trkpt lat="47.47473" lon="-2.16553">
        <ele>31.9</ele>
        <time>2021-04-27T14:46:25Z</time>
      </trkpt>
      <trkpt lat="47.47343" lon="-2.16739">
        <ele>29.4</ele>
        <time>2021-04-27T14:46:32Z</time>
      </trkpt>
      <trkpt lat="47.47364" lon="-2.16788">
        <ele>28.9</ele>
        <time>2021-04-27T14:46:50Z</time>
      </trkpt>
      <trkpt lat="47.47334" lon="-2.16836">
        <ele>30</ele>
        <time>2021-04-27T14:46:55Z</time>
      </trkpt>
      <trkpt lat="47.47309" lon="-2.16884">
        <ele>30.7</ele>
        <time>2021-04-27T14:47:15Z</time>
      </trkpt>
      <trkpt lat="47.47283" lon="-2.16958">
        <ele>30.2</ele>
        <time>2021-04-27T14:47:25Z</time>
      </trkpt>
      <trkpt lat="47.4722" lon="-2.17074">
        <ele>30</ele>
        <time>2021-04-27T14:47:28Z</time>
      </trkpt>
      <trkpt lat="47.47204" lon="-2.17116">
        <ele>30.6</ele>
        <time>2021-04-27T14:47:34Z</time>
      </trkpt>
      <trkpt lat="47.47154" lon="-2.1729">
        <ele>29.2</ele>
        <time>2021-04-27T14:47:40Z</time>
      </trkpt>
      <trkpt lat="47.47146" lon="-2.17311">
        <ele>28.8</ele>
        <time>2021-04-27T14:47:49Z</time>
      </trkpt>
      <trkpt lat="47.47134" lon="-2.17334">
        <ele>28</ele>
        <time>2021-04-27T14:48:03Z</time>
      </trkpt>
      <trkpt lat="47.47119" lon="-2.17353">
        <ele>27.3</ele>
        <time>2021-04-27T14:48:23Z</time>
      </trkpt>
      <trkpt lat="47.47102" lon="-2.17374">
        <ele>26.5</ele>
        <time>2021-04-27T14:48:28Z</time>
      </trkpt>
      <trkpt lat="47.47027" lon="-2.17451">
        <ele>23.8</ele>
        <time>2021-04-27T14:48:47Z</time>
      </trkpt>
      <trkpt lat="47.47011" lon="-2.17465">
        <ele>23.9</ele>
        <time>2021-04-27T14:48:51Z</time>
      </trkpt>
      <trkpt lat="47.46985" lon="-2.1748">
        <ele>23.9</ele>
        <time>2021-04-27T14:48:59Z</time>
      </trkpt>
      <trkpt lat="47.46904" lon="-2.17508">
        <ele>24.9</ele>
        <time>2021-04-27T14:49:10Z</time>
      </trkpt>
      <trkpt lat="47.46881" lon="-2.17522">
        <ele>25.1</ele>
        <time>2021-04-27T14:49:21Z</time>
      </trkpt>
      <trkpt lat="47.4675" lon="-2.17629">
        <ele>28</ele>
        <time>2021-04-27T14:49:27Z</time>
      </trkpt>
      <trkpt lat="47.46702" lon="-2.17693">
        <ele>27</ele>
        <time>2021-04-27T14:49:45Z</time>
      </trkpt>
      <trkpt lat="47.46688" lon="-2.17704">
        <ele>26.5</ele>
        <time>2021-04-27T14:49:57Z</time>
      </trkpt>
      <trkpt lat="47.46671" lon="-2.17714">
        <ele>26.1</ele>
        <time>2021-04-27T14:49:59Z</time>
      </trkpt>
      <trkpt lat="47.46646" lon="-2.17723">
        <ele>25.2</ele>
        <time>2021-04-27T14:50:18Z</time>
      </trkpt>
      <trkpt lat="47.46625" lon="-2.17733">
        <ele>24.5</ele>
        <time>2021-04-27T14:50:33Z</time>
      </trkpt>
      <trkpt lat="47.46605" lon="-2.17748">
        <ele>23.8</ele>
        <time>2021-04-27T14:50:53Z</time>
      </trkpt>
      <trkpt lat="47.4656" lon="-2.17806">
        <ele>20.3</ele>
        <time>2021-04-27T14:51:12Z</time>
      </trkpt>
      <trkpt lat="47.46548" lon="-2.17815">
        <ele>19.7</ele>
        <time>2021-04-27T14:51:17Z</time>
      </trkpt>
      <trkpt lat="47.46491" lon="-2.17836">
        <ele>20</ele>
        <time>2021-04-27T14:51:27Z</time>
      </trkpt>
      <trkpt lat="47.46464" lon="-2.17851">
        <ele>20.6</ele>
        <time>2021-04-27T14:51:45Z</time>
      </trkpt>
      <trkpt lat="47.46419" lon="-2.17884">
        <ele>20.9</ele>
        <time>2021-04-27T14:51:52Z</time>
      </trkpt>
      <trkpt lat="47.46363" lon="-2.17931">
        <ele>19.6</ele>
        <time>2021-04-27T14:52:12Z</time>
      </trkpt>
      <trkpt lat="47.46277" lon="-2.18024">
        <ele>17.8</ele>
        <time>2021-04-27T14:52:26Z</time>
      </trkpt>
      <trkpt lat="47.46197" lon="-2.18113">
        <ele>16.1</ele>
        <time>2021-04-27T14:52:37Z</time>
      </trkpt>
      <trkpt lat="47.46182" lon="-2.18134">
        <ele>15.6</ele>
        <time>2021-04-27T14:52:50Z</time>
      </trkpt>
      <trkpt lat="47.46171" lon="-2.18154">
        <ele>15.1</ele>
        <time>2021-04-27T14:52:56Z</time>
      </trkpt>
      <trkpt lat="47.46159" lon="-2.18182">
        <ele>15</ele>
        <time>2021-04-27T14:53:04Z</time>
      </trkpt>
      <trkpt lat="47.46137" lon="-2.18264">
        <ele>14.1</ele>
        <time>2021-04-27T14:53:18Z</time>
      </trkpt>
      <trkpt lat="47.46121" lon="-2.18298">
        <ele>14.2</ele>
        <time>2021-04-27T14:53:35Z</time>
      </trkpt>
      <trkpt lat="47.4611" lon="-2.18311">
        <ele>14</ele>
        <time>2021-04-27T14:53:48Z</time>
      </trkpt>
      <trkpt lat="47.46085" lon="-2.18328">
        <ele>14</ele>
        <time>2021-04-27T14:53:57Z</time>
      </trkpt>
      <trkpt lat="47.46076" lon="-2.18331">
        <ele>14</ele>
        <time>2021-04-27T14:54:12Z</time>
      </trkpt>
      <trkpt lat="47.46017" lon="-2.18349">
        <ele>12.3</ele>
        <time>2021-04-27T14:54:28Z</time>
      </trkpt>
      <trkpt lat="47.46004" lon="-2.1835">
        <ele>11.3</ele>
        <time>2021-04-27T14:54:44Z</time>
      </trkpt>
      <trkpt lat="47.45993" lon="-2.18345">
        <ele>10.7</ele>
        <time>2021-04-27T14:55:00Z</time>
      </trkpt>
      <trkpt lat="47.45983" lon="-2.18338">
        <ele>10.4</ele>
        <time>2021-04-27T14:55:08Z</time>
      </trkpt>
      <trkpt lat="47.45854" lon="-2.18193">
        <ele>9.7</ele>
        <time>2021-04-27T14:55:24Z</time>
      </trkpt>
      <trkpt lat="47.45839" lon="-2.18166">
        <ele>9.2</ele>
        <time>2021-04-27T14:55:37Z</time>
      </trkpt>
      <trkpt lat="47.4583" lon="-2.18139">
        <ele>8.9</ele>
        <time>2021-04-27T14:55:50Z</time>
      </trkpt>
      <trkpt lat="47.45824" lon="-2.18109">
        <ele>8.7</ele>
        <time>2021-04-27T14:56:08Z</time>
      </trkpt>
      <trkpt lat="47.45797" lon="-2.17965">
        <ele>8.7</ele>
        <time>2021-04-27T14:56:12Z</time>
      </trkpt>
      <trkpt lat="47.45785" lon="-2.17885">
        <ele>8.3</ele>
        <time>2021-04-27T14:56:18Z</time>
      </trkpt>
      <trkpt lat="47.45776" lon="-2.17856">
        <ele>8.9</ele>
        <time>2021-04-27T14:56:28Z</time>
      </trkpt>
      <trkpt lat="47.45761" lon="-2.17834">
        <ele>8.4</ele>
        <time>2021-04-27T14:56:32Z</time>
      </trkpt>
      <trkpt lat="47.45745" lon="-2.17821">
        <ele>8.5</ele>
        <time>2021-04-27T14:56:52Z</time>
      </trkpt>
      <trkpt lat="47.45728" lon="-2.17817">
        <ele>8.9</ele>
        <time>2021-04-27T14:57:10Z</time>
      </trkpt>
      <trkpt lat="47.45703" lon="-2.17817">
        <ele>9</ele>
        <time>2021-04-27T14:57:16Z</time>
      </trkpt>
      <trkpt lat="47.45685" lon="-2.1782">
        <ele>9.4</ele>
        <time>2021-04-27T14:57:29Z</time>
      </trkpt>
      <trkpt lat="47.45636" lon="-2.17847">
        <ele>10.1</ele>
        <time>2021-04-27T14:57:49Z</time>
      </trkpt>
      <trkpt lat="47.45621" lon="-2.17857">
        <ele>10.6</ele>
        <time>2021-04-27T14:57:54Z</time>
      </trkpt>
      <trkpt lat="47.45603" lon="-2.17876">
        <ele>11.3</ele>
        <time>2021-04-27T14:57:58Z</time>
      </trkpt>
      <trkpt lat="47.45592" lon="-2.17891">
        <ele>11.7</ele>
        <time>2021-04-27T14:58:02Z</time>
      </trkpt>
      <trkpt lat="47.45575" lon="-2.17923">
        <ele>12.2</ele>
        <time>2021-04-27T14:58:22Z</time>
      </trkpt>
      <trkpt lat="47.45543" lon="-2.17991">
        <ele>11.6</ele>
        <time>2021-04-27T14:58:28Z</time>
      </trkpt>
      <trkpt lat="47.4553" lon="-2.18007">
        <ele>11.9</ele>
        <time>2021-04-27T14:58:37Z</time>
      </trkpt>
      <trkpt lat="47.45503" lon="-2.18027">
        <ele>12</ele>
        <time>2021-04-27T14:58:43Z</time>
      </trkpt>
      <trkpt lat="47.45477" lon="-2.18056">
        <ele>12</ele>
        <time>2021-04-27T14:59:02Z</time>
      </trkpt>
      <trkpt lat="47.45472" lon="-2.18058">
        <ele>12</ele>
        <time>2021-04-27T14:59:10Z</time>
      </trkpt>
      <trkpt lat="47.45455" lon="-2.18839">
        <ele>12.7</ele>
        <time>2021-04-27T14:59:17Z</time>
      </trkpt>
      <trkpt lat="47.45451" lon="-2.189">
        <ele>13.5</ele>
        <time>2021-04-27T14:59:20Z</time>
      </trkpt>
      <trkpt lat="47.45439" lon="-2.18956">
        <ele>12.4</ele>
        <time>2021-04-27T14:59:24Z</time>
      </trkpt>
      <trkpt lat="47.45372" lon="-2.1916">
        <ele>6.6</ele>
        <time>2021-04-27T14:59:40Z</time>
      </trkpt>
      <trkpt lat="47.45348" lon="-2.19231">
        <ele>6</ele>
        <time>2021-04-27T14:59:43Z</time>
      </trkpt>
      <trkpt lat="47.45339" lon="-2.19246">
        <ele>6</ele>
        <time>2021-04-27T14:59:47Z</time>
      </trkpt>
      <trkpt lat="47.45324" lon="-2.19262">
        <ele>6</ele>
        <time>2021-04-27T15:00:06Z</time>
      </trkpt>
      <trkpt lat="47.45308" lon="-2.19269">
        <ele>6</ele>
        <time>2021-04-27T15:00:20Z</time>
      </trkpt>
      <trkpt lat="47.45225" lon="-2.19298">
        <ele>7.9</ele>
        <time>2021-04-27T15:00:37Z</time>
      </trkpt>
      <trkpt lat="47.45258" lon="-2.1943">
        <ele>6.7</ele>
        <time>2021-04-27T15:00:49Z</time>
      </trkpt>
      <trkpt lat="47.45261" lon="-2.19438">
        <ele>6.6</ele>
        <time>2021-04-27T15:01:07Z</time>
      </trkpt>
      <trkpt lat="47.45283" lon="-2.19481">
        <ele>6.8</ele>
        <time>2021-04-27T15:01:11Z</time>
      </trkpt>
      <trkpt lat="47.45298" lon="-2.19549">
        <ele>7.1</ele>
        <time>2021-04-27T15:01:24Z</time>
      </trkpt>
      <trkpt lat="47.45318" lon="-2.19598">
        <ele>7.3</ele>
        <time>2021-04-27T15:01:36Z</time>
      </trkpt>
      <trkpt lat="47.45336" lon="-2.19656">
        <ele>6.9</ele>
        <time>2021-04-27T15:01:51Z</time>
      </trkpt>
      <trkpt lat="47.45372" lon="-2.1975">
        <ele>8.6</ele>
        <time>2021-04-27T15:01:53Z</time>
      </trkpt>
      <trkpt lat="47.45385" lon="-2.19806">
        <ele>10.1</ele>
        <time>2021-04-27T15:02:06Z</time>
      </trkpt>
      <trkpt lat="47.45389" lon="-2.19836">
        <ele>9.9</ele>
        <time>2021-04-27T15:02:20Z</time>
      </trkpt>
      <trkpt lat="47.45388" lon="-2.19843">
        <ele>9.7</ele>
        <time>2021-04-27T15:02:34Z</time>
      </trkpt>
      <trkpt lat="47.4552" lon="-2.19979">
        <ele>6.8</ele>
        <time>2021-04-27T15:02:47Z</time>
      </trkpt>
      <trkpt lat="47.45533" lon="-2.19988">
        <ele>7.3</ele>
        <time>2021-04-27T15:02:57Z</time>
      </trkpt>
      <trkpt lat="47.45564" lon="-2.20001">
        <ele>8.3</ele>
        <time>2021-04-27T15:03:09Z</time>
      </trkpt>
      <trkpt lat="47.45631" lon="-2.20012">
        <ele>11.3</ele>
        <time>2021-04-27T15:03:17Z</time>
      </trkpt>
      <trkpt lat="47.45651" lon="-2.20019">
        <ele>11.3</ele>
        <time>2021-04-27T15:03:28Z</time>
      </trkpt>
      <trkpt lat="47.45668" lon="-2.20028">
        <ele>11</ele>
        <time>2021-04-27T15:03:32Z</time>
      </trkpt>
      <trkpt lat="47.45772" lon="-2.20098">
        <ele>11</ele>
        <time>2021-04-27T15:03:46Z</time>
      </trkpt>
      <trkpt lat="47.45784" lon="-2.20111">
        <ele>11.2</ele>
        <time>2021-04-27T15:04:03Z</time>
      </trkpt>
      <trkpt lat="47.45797" lon="-2.20128">
        <ele>11.3</ele>
        <time>2021-04-27T15:04:17Z</time>
      </trkpt>
      <trkpt lat="47.45848" lon="-2.20221">
        <ele>10.1</ele>
        <time>2021-04-27T15:04:29Z</time>
      </trkpt>
      <trkpt lat="47.45889" lon="-2.20276">
        <ele>10.1</ele>
        <time>2021-04-27T15:04:40Z</time>
      </trkpt>
      <trkpt lat="47.45903" lon="-2.20308">
        <ele>10</ele>
        <time>2021-04-27T15:04:59Z</time>
      </trkpt>
      <trkpt lat="47.45923" lon="-2.20384">
        <ele>9.4</ele>
        <time>2021-04-27T15:05:16Z</time>
      </trkpt>
      <trkpt lat="47.45981" lon="-2.20544">
        <ele>8</ele>
        <time>2021-04-27T15:05:32Z</time>
      </trkpt>
      <trkpt lat="47.45989" lon="-2.20582">
        <ele>8</ele>
        <time>2021-04-27T15:05:36Z</time>
      </trkpt>
      <trkpt lat="47.46036" lon="-2.20861">
        <ele>5.3</ele>
        <time>2021-04-27T15:05:49Z</time>
      </trkpt>
      <trkpt lat="47.46004" lon="-2.20891">
        <ele>5</ele>
        <time>2021-04-27T15:06:01Z</time>
      </trkpt>
      <trkpt lat="47.45972" lon="-2.20915">
        <ele>5</ele>
        <time>2021-04-27T15:06:12Z</time>
      </trkpt>
      <trkpt lat="47.45949" lon="-2.20928">
        <ele>4.6</ele>
        <time>2021-04-27T15:06:31Z</time>
      </trkpt>
      <trkpt lat="47.45866" lon="-2.20956">
        <ele>4.9</ele>
        <time>2021-04-27T15:06:40Z</time>
      </trkpt>
      <trkpt lat="47.45777" lon="-2.21005">
        <ele>5.2</ele>
        <time>2021-04-27T15:06:45Z</time>
      </trkpt>
      <trkpt lat="47.45733" lon="-2.21017">
        <ele>6</ele>
        <time>2021-04-27T15:06:56Z</time>
      </trkpt>
      <trkpt lat="47.4545" lon="-2.21066">
        <ele>5.2</ele>
        <time>2021-04-27T15:06:58Z</time>
      </trkpt>
      <trkpt lat="47.45383" lon="-2.21072">
        <ele>5</ele>
        <time>2021-04-27T15:07:17Z</time>
      </trkpt>
      <trkpt lat="47.45232" lon="-2.21074">
        <ele>5</ele>
        <time>2021-04-27T15:07:29Z</time>
      </trkpt>
      <trkpt lat="47.45154" lon="-2.21099">
        <ele>4.2</ele>
        <time>2021-04-27T15:07:45Z</time>
      </trkpt>
      <trkpt lat="47.45139" lon="-2.21106">
        <ele>4.8</ele>
        <time>2021-04-27T15:07:50Z</time>
      </trkpt>
      <trkpt lat="47.45132" lon="-2.21119">
        <ele>4.6</ele>
        <time>2021-04-27T15:08:10Z</time>
      </trkpt>
      <trkpt lat="47.45126" lon="-2.21139">
        <ele>4</ele>
        <time>2021-04-27T15:08:25Z</time>
      </trkpt>
      <trkpt lat="47.45119" lon="-2.21175">
        <ele>4.3</ele>
        <time>2021-04-27T15:08:44Z</time>
      </trkpt>
      <trkpt lat="47.45113" lon="-2.21197">
        <ele>4.1</ele>
        <time>2021-04-27T15:08:52Z</time>
      </trkpt>
      <trkpt lat="47.451" lon="-2.21214">
        <ele>4</ele>
        <time>2021-04-27T15:08:56Z</time>
      </trkpt>
      <trkpt lat="47.45047" lon="-2.21261">
        <ele>4.3</ele>
        <time>2021-04-27T15:09:07Z</time>
      </trkpt>
      <trkpt lat="47.45039" lon="-2.21269">
        <ele>4.6</ele>
        <time>2021-04-27T15:09:23Z</time>
      </trkpt>
      <trkpt lat="47.45027" lon="-2.21283">
        <ele>5</ele>
        <time>2021-04-27T15:09:29Z</time>
      </trkpt>
      <trkpt lat="47.45022" lon="-2.21298">
        <ele>5</ele>
        <time>2021-04-27T15:09:46Z</time>
      </trkpt>
      <trkpt lat="47.45019" lon="-2.2132">
        <ele>4.6</ele>
        <time>2021-04-27T15:09:50Z</time>
      </trkpt>
      <trkpt lat="47.45022" lon="-2.21343">
        <ele>4.2</ele>
        <time>2021-04-27T15:10:09Z</time>
      </trkpt>
      <trkpt lat="47.45033" lon="-2.21409">
        <ele>3.6</ele>
        <time>2021-04-27T15:10:17Z</time>
      </trkpt>
      <trkpt lat="47.45044" lon="-2.21504">
        <ele>3.4</ele>
        <time>2021-04-27T15:10:22Z</time>
      </trkpt>
      <trkpt lat="47.45045" lon="-2.21541">
        <ele>3.5</ele>
        <time>2021-04-27T15:10:42Z</time>
      </trkpt>
      <trkpt lat="47.45043" lon="-2.21571">
        <ele>3.9</ele>
        <time>2021-04-27T15:11:02Z</time>
      </trkpt>
      <trkpt lat="47.45031" lon="-2.21612">
        <ele>3.7</ele>
        <time>2021-04-27T15:11:14Z</time>
      </trkpt>
      <trkpt lat="47.45023" lon="-2.21633">
        <ele>3.6</ele>
        <time>2021-04-27T15:11:32Z</time>
      </trkpt>
      <trkpt lat="47.44999" lon="-2.21676">
        <ele>3.7</ele>
        <time>2021-04-27T15:11:37Z</time>
      </trkpt>
      <trkpt lat="47.44993" lon="-2.21691">
        <ele>3.6</ele>
        <time>2021-04-27T15:11:40Z</time>
      </trkpt>
      <trkpt lat="47.44974" lon="-2.21754">
        <ele>3.9</ele>
        <time>2021-04-27T15:11:59Z</time>
      </trkpt>
      <trkpt lat="47.44941" lon="-2.21833">
        <ele>5</ele>
        <time>2021-04-27T15:12:17Z</time>
      </trkpt>
      <trkpt lat="47.44936" lon="-2.21852">
        <ele>4.3</ele>
        <time>2021-04-27T15:12:22Z</time>
      </trkpt>
      <trkpt lat="47.44934" lon="-2.21878">
        <ele>4</ele>
        <time>2021-04-27T15:12:42Z</time>
      </trkpt>
      <trkpt lat="47.44936" lon="-2.21912">
        <ele>4.6</ele>
        <time>2021-04-27T15:12:47Z</time>
      </trkpt>
      <trkpt lat="47.4494" lon="-2.21942">
        <ele>3.9</ele>
        <time>2021-04-27T15:12:57Z</time>
      </trkpt>
      <trkpt lat="47.4496" lon="-2.22004">
        <ele>2.9</ele>
        <time>2021-04-27T15:13:02Z</time>
      </trkpt>
      <trkpt lat="47.44966" lon="-2.22038">
        <ele>2</ele>
        <time>2021-04-27T15:13:13Z</time>
      </trkpt>
      <trkpt lat="47.44972" lon="-2.22134">
        <ele>2</ele>
        <time>2021-04-27T15:13:19Z</time>
      </trkpt>
      <trkpt lat="47.44976" lon="-2.2222">
        <ele>2.8</ele>
        <time>2021-04-27T15:13:35Z</time>
      </trkpt>
      <trkpt lat="47.44974" lon="-2.22246">
        <ele>3</ele>
        <time>2021-04-27T15:13:52Z</time>
      </trkpt>
      <trkpt lat="47.44961" lon="-2.22292">
        <ele>4.2</ele>
        <time>2021-04-27T15:14:11Z</time>
      </trkpt>
      <trkpt lat="47.44954" lon="-2.22326">
        <ele>4.2</ele>
        <time>2021-04-27T15:14:30Z</time>
      </trkpt>
      <trkpt lat="47.44952" lon="-2.22357">
        <ele>4</ele>
        <time>2021-04-27T15:14:48Z</time>
      </trkpt>
      <trkpt lat="47.44955" lon="-2.22393">
        <ele>3.4</ele>
        <time>2021-04-27T15:14:54Z</time>
      </trkpt>
      <trkpt lat="47.44961" lon="-2.22423">
        <ele>3.6</ele>
        <time>2021-04-27T15:15:05Z</time>
      </trkpt>
      <trkpt lat="47.44971" lon="-2.22458">
        <ele>3.5</ele>
        <time>2021-04-27T15:15:25Z</time>
      </trkpt>
      <trkpt lat="47.44975" lon="-2.22486">
        <ele>3.1</ele>
        <time>2021-04-27T15:15:32Z</time>
      </trkpt>
      <trkpt lat="47.44967" lon="-2.22553">
        <ele>4</ele>
        <time>2021-04-27T15:15:36Z</time>
      </trkpt>
      <trkpt lat="47.44969" lon="-2.22723">
        <ele>4.9</ele>
        <time>2021-04-27T15:15:46Z</time>
      </trkpt>
      <trkpt lat="47.44971" lon="-2.22757">
        <ele>5.9</ele>
        <time>2021-04-27T15:15:55Z</time>
      </trkpt>
      <trkpt lat="47.44981" lon="-2.22832">
        <ele>6</ele>
        <time>2021-04-27T15:16:07Z</time>
      </trkpt>
      <trkpt lat="47.44987" lon="-2.2286">
        <ele>6</ele>
        <time>2021-04-27T15:16:15Z</time>
      </trkpt>
      <trkpt lat="47.45009" lon="-2.22915">
        <ele>6</ele>
        <time>2021-04-27T15:16:29Z</time>
      </trkpt>
      <trkpt lat="47.45018" lon="-2.22946">
        <ele>6</ele>
        <time>2021-04-27T15:16:43Z</time>
      </trkpt>
      <trkpt lat="47.45045" lon="-2.23058">
        <ele>6</ele>
        <time>2021-04-27T15:16:57Z</time>
      </trkpt>
      <trkpt lat="47.45054" lon="-2.23078">
        <ele>6</ele>
        <time>2021-04-27T15:17:05Z</time>
      </trkpt>
      <trkpt lat="47.45094" lon="-2.23142">
        <ele>6</ele>
        <time>2021-04-27T15:17:08Z</time>
      </trkpt>
      <trkpt lat="47.451" lon="-2.2316">
        <ele>6</ele>
        <time>2021-04-27T15:17:10Z</time>
      </trkpt>
      <trkpt lat="47.45101" lon="-2.23183">
        <ele>5.6</ele>
        <time>2021-04-27T15:17:17Z</time>
      </trkpt>
      <trkpt lat="47.45098" lon="-2.23229">
        <ele>5.1</ele>
        <time>2021-04-27T15:17:23Z</time>
      </trkpt>
      <trkpt lat="47.45088" lon="-2.23286">
        <ele>5.1</ele>
        <time>2021-04-27T15:17:40Z</time>
      </trkpt>
      <trkpt lat="47.4506" lon="-2.23405">
        <ele>5.1</ele>
        <time>2021-04-27T15:17:56Z</time>
      </trkpt>
      <trkpt lat="47.45039" lon="-2.23455">
        <ele>4.6</ele>
        <time>2021-04-27T15:18:04Z</time>
      </trkpt>
      <trkpt lat="47.44976" lon="-2.23596">
        <ele>5</ele>
        <time>2021-04-27T15:18:19Z</time>
      </trkpt>
      <trkpt lat="47.44922" lon="-2.23725">
        <ele>5</ele>
        <time>2021-04-27T15:18:39Z</time>
      </trkpt>
      <trkpt lat="47.44834" lon="-2.23896">
        <ele>5</ele>
        <time>2021-04-27T15:18:59Z</time>
      </trkpt>
      <trkpt lat="47.44827" lon="-2.23915">
        <ele>5</ele>
        <time>2021-04-27T15:19:13Z</time>
      </trkpt>
      <trkpt lat="47.44823" lon="-2.23931">
        <ele>5</ele>
        <time>2021-04-27T15:19:28Z</time>
      </trkpt>
      <trkpt lat="47.44814" lon="-2.23989">
        <ele>5.2</ele>
        <time>2021-04-27T15:19:30Z</time>
      </trkpt>
      <trkpt lat="47.4482" lon="-2.24005">
        <ele>5.6</ele>
        <time>2021-04-27T15:19:47Z</time>
      </trkpt>
      <trkpt lat="47.44807" lon="-2.24022">
        <ele>5.8</ele>
        <time>2021-04-27T15:19:57Z</time>
      </trkpt>
      <trkpt lat="47.44797" lon="-2.24057">
        <ele>6</ele>
        <time>2021-04-27T15:20:15Z</time>
      </trkpt>
      <trkpt lat="47.44788" lon="-2.24098">
        <ele>5.8</ele>
        <time>2021-04-27T15:20:22Z</time>
      </trkpt>
      <trkpt lat="47.44816" lon="-2.24122">
        <ele>5.2</ele>
        <time>2021-04-27T15:20:31Z</time>
      </trkpt>
      <trkpt lat="47.44839" lon="-2.24141">
        <ele>5</ele>
        <time>2021-04-27T15:20:39Z</time>
      </trkpt>
      <trkpt lat="47.44878" lon="-2.24183">
        <ele>5</ele>
        <time>2021-04-27T15:20:57Z</time>
      </trkpt>
      <trkpt lat="47.4494" lon="-2.24245">
        <ele>5</ele>
        <time>2021-04-27T15:21:10Z</time>
      </trkpt>
      <trkpt lat="47.44981" lon="-2.24283">
        <ele>5</ele>
        <time>2021-04-27T15:21:26Z</time>
      </trkpt>
      <trkpt lat="47.45019" lon="-2.24327">
        <ele>4.2</ele>
        <time>2021-04-27T15:21:37Z</time>
      </trkpt>
      <trkpt lat="47.45043" lon="-2.24358">
        <ele>4</ele>
        <time>2021-04-27T15:21:50Z</time>
      </trkpt>
      <trkpt lat="47.4506" lon="-2.24394">
        <ele>3.9</ele>
        <time>2021-04-27T15:22:06Z</time>
      </trkpt>
      <trkpt lat="47.45069" lon="-2.24416">
        <ele>3.5</ele>
        <time>2021-04-27T15:22:23Z</time>
      </trkpt>
      <trkpt lat="47.45082" lon="-2.24458">
        <ele>3.5</ele>
        <time>2021-04-27T15:22:39Z</time>
      </trkpt>
      <trkpt lat="47.45158" lon="-2.24685">
        <ele>3.7</ele>
        <time>2021-04-27T15:22:47Z</time>
      </trkpt>
      <trkpt lat="47.45169" lon="-2.24715">
        <ele>3.3</ele>
        <time>2021-04-27T15:22:50Z</time>
      </trkpt>
      <trkpt lat="47.45181" lon="-2.24734">
        <ele>3.5</ele>
        <time>2021-04-27T15:23:10Z</time>
      </trkpt>
      <trkpt lat="47.45198" lon="-2.24745">
        <ele>4</ele>
        <time>2021-04-27T15:23:19Z</time>
      </trkpt>
      <trkpt lat="47.45212" lon="-2.2475">
        <ele>4</ele>
        <time>2021-04-27T15:23:32Z</time>
      </trkpt>
      <trkpt lat="47.45265" lon="-2.24744">
        <ele>4</ele>
        <time>2021-04-27T15:23:39Z</time>
      </trkpt>
      <trkpt lat="47.45325" lon="-2.24732">
        <ele>3.8</ele>
        <time>2021-04-27T15:23:59Z</time>
      </trkpt>
      <trkpt lat="47.45358" lon="-2.2472">
        <ele>4</ele>
        <time>2021-04-27T15:24:04Z</time>
      </trkpt>
      <trkpt lat="47.45398" lon="-2.24695">
        <ele>4</ele>
        <time>2021-04-27T15:24:15Z</time>
      </trkpt>
      <trkpt lat="47.45408" lon="-2.24685">
        <ele>4</ele>
        <time>2021-04-27T15:24:32Z</time>
      </trkpt>
      <trkpt lat="47.45486" lon="-2.24664">
        <ele>5</ele>
        <time>2021-04-27T15:24:38Z</time>
      </trkpt>
      <trkpt lat="47.45495" lon="-2.24666">
        <ele>5</ele>
        <time>2021-04-27T15:24:53Z</time>
      </trkpt>
      <trkpt lat="47.45505" lon="-2.24673">
        <ele>5.4</ele>
        <time>2021-04-27T15:25:11Z</time>
      </trkpt>
      <trkpt lat="47.45576" lon="-2.24733">
        <ele>6.4</ele>
        <time>2021-04-27T15:25:20Z</time>
      </trkpt>
      <trkpt lat="47.4566" lon="-2.2484">
        <ele>6.6</ele>
        <time>2021-04-27T15:25:40Z</time>
      </trkpt>
      <trkpt lat="47.45671" lon="-2.24844">
        <ele>6.7</ele>
        <time>2021-04-27T15:25:46Z</time>
      </trkpt>
      <trkpt lat="47.45672" lon="-2.24855">
        <ele>6.3</ele>
        <time>2021-04-27T15:25:53Z</time>
      </trkpt>
      <trkpt lat="47.45677" lon="-2.24872">
        <ele>5.6</ele>
        <time>2021-04-27T15:26:05Z</time>
      </trkpt>
      <trkpt lat="47.45687" lon="-2.24892">
        <ele>4.8</ele>
        <time>2021-04-27T15:26:14Z</time>
      </trkpt>
      <trkpt lat="47.45807" lon="-2.25029">
        <ele>7.9</ele>
        <time>2021-04-27T15:26:18Z</time>
      </trkpt>
      <trkpt lat="47.45818" lon="-2.25045">
        <ele>7.6</ele>
        <time>2021-04-27T15:26:29Z</time>
      </trkpt>
      <trkpt lat="47.45828" lon="-2.25067">
        <ele>7.5</ele>
        <time>2021-04-27T15:26:35Z</time>
      </trkpt>
      <trkpt lat="47.4592" lon="-2.25389">
        <ele>5</ele>
        <time>2021-04-27T15:26:46Z</time>
      </trkpt>
      <trkpt lat="47.45931" lon="-2.25443">
        <ele>4.1</ele>
        <time>2021-04-27T15:26:50Z</time>
      </trkpt>
      <trkpt lat="47.45946" lon="-2.25536">
        <ele>6</ele>
        <time>2021-04-27T15:27:02Z</time>
      </trkpt>
      <trkpt lat="47.45966" lon="-2.25675">
        <ele>6.6</ele>
        <time>2021-04-27T15:27:10Z</time>
      </trkpt>
      <trkpt lat="47.4597" lon="-2.25711">
        <ele>6.5</ele>
        <time>2021-04-27T15:27:19Z</time>
      </trkpt>
      <trkpt lat="47.45971" lon="-2.25743">
        <ele>7</ele>
        <time>2021-04-27T15:27:26Z</time>
      </trkpt>
      <trkpt lat="47.45972" lon="-2.25905">
        <ele>9.6</ele>
        <time>2021-04-27T15:27:41Z</time>
      </trkpt>
      <trkpt lat="47.45974" lon="-2.25955">
        <ele>10</ele>
        <time>2021-04-27T15:27:54Z</time>
      </trkpt>
      <trkpt lat="47.4599" lon="-2.26092">
        <ele>9.6</ele>
        <time>2021-04-27T15:28:00Z</time>
      </trkpt>
      <trkpt lat="47.46" lon="-2.26146">
        <ele>10</ele>
        <time>2021-04-27T15:28:17Z</time>
      </trkpt>
      <trkpt lat="47.46034" lon="-2.26281">
        <ele>5.5</ele>
        <time>2021-04-27T15:28:22Z</time>
      </trkpt>
      <trkpt lat="47.46065" lon="-2.26393">
        <ele>4.3</ele>
        <time>2021-04-27T15:28:35Z</time>
      </trkpt>
      <trkpt lat="47.46079" lon="-2.26421">
        <ele>4.5</ele>
        <time>2021-04-27T15:28:54Z</time>
      </trkpt>
      <trkpt lat="47.46094" lon="-2.2644">
        <ele>4.9</ele>
        <time>2021-04-27T15:28:57Z</time>
      </trkpt>
      <trkpt lat="47.46253" lon="-2.26571">
        <ele>4.5</ele>
        <time>2021-04-27T15:29:00Z</time>
      </trkpt>
      <trkpt lat="47.46265" lon="-2.26599">
        <ele>4</ele>
        <time>2021-04-27T15:29:06Z</time>
      </trkpt>
      <trkpt lat="47.46276" lon="-2.2663">
        <ele>4.5</ele>
        <time>2021-04-27T15:29:08Z</time>
      </trkpt>
      <trkpt lat="47.46371" lon="-2.27004">
        <ele>5.9</ele>
        <time>2021-04-27T15:29:15Z</time>
      </trkpt>
      <trkpt lat="47.46377" lon="-2.2704">
        <ele>4.9</ele>
        <time>2021-04-27T15:29:27Z</time>
      </trkpt>
      <trkpt lat="47.46379" lon="-2.27071">
        <ele>4.6</ele>
        <time>2021-04-27T15:29:34Z</time>
      </trkpt>
      <trkpt lat="47.46388" lon="-2.27271">
        <ele>5.8</ele>
        <time>2021-04-27T15:29:51Z</time>
      </trkpt>
      <trkpt lat="47.46393" lon="-2.2731">
        <ele>6.9</ele>
        <time>2021-04-27T15:29:56Z</time>
      </trkpt>
      <trkpt lat="47.46401" lon="-2.27346">
        <ele>7.2</ele>
        <time>2021-04-27T15:30:11Z</time>
      </trkpt>
      <trkpt lat="47.46411" lon="-2.27376">
        <ele>7.6</ele>
        <time>2021-04-27T15:30:20Z</time>
      </trkpt>
      <trkpt lat="47.46368" lon="-2.27421">
        <ele>9.1</ele>
        <time>2021-04-27T15:30:35Z</time>
      </trkpt>
      <trkpt lat="47.4634" lon="-2.27433">
        <ele>9.6</ele>
        <time>2021-04-27T15:30:41Z</time>
      </trkpt>
      <trkpt lat="47.46283" lon="-2.27438">
        <ele>9.8</ele>
        <time>2021-04-27T15:31:01Z</time>
      </trkpt>
      <trkpt lat="47.46263" lon="-2.27442">
        <ele>9.9</ele>
        <time>2021-04-27T15:31:10Z</time>
      </trkpt>
      <trkpt lat="47.46249" lon="-2.2745">
        <ele>10.2</ele>
        <time>2021-04-27T15:31:13Z</time>
      </trkpt>
      <trkpt lat="47.46217" lon="-2.2748">
        <ele>10.5</ele>
        <time>2021-04-27T15:31:25Z</time>
      </trkpt>
      <trkpt lat="47.46202" lon="-2.27488">
        <ele>11.3</ele>
        <time>2021-04-27T15:31:40Z</time>
      </trkpt>
      <trkpt lat="47.46135" lon="-2.27511">
        <ele>12.9</ele>
        <time>2021-04-27T15:31:50Z</time>
      </trkpt>
      <trkpt lat="47.4609" lon="-2.2754">
        <ele>14.3</ele>
        <time>2021-04-27T15:32:08Z</time>
      </trkpt>
      <trkpt lat="47.46026" lon="-2.27589">
        <ele>16</ele>
        <time>2021-04-27T15:32:20Z</time>
      </trkpt>
      <trkpt lat="47.45996" lon="-2.27588">
        <ele>15.8</ele>
        <time>2021-04-27T15:32:29Z</time>
      </trkpt>
      <trkpt lat="47.45992" lon="-2.27585">
        <ele>15.9</ele>
        <time>2021-04-27T15:32:41Z</time>
      </trkpt>
      <trkpt lat="47.45993" lon="-2.27618">
        <ele>14.8</ele>
        <time>2021-04-27T15:32:44Z</time>
      </trkpt>
      <trkpt lat="47.46134" lon="-2.28157">
        <ele>10</ele>
        <time>2021-04-27T15:32:57Z</time>
      </trkpt>
      <trkpt lat="47.46195" lon="-2.28388">
        <ele>7</ele>
        <time>2021-04-27T15:33:06Z</time>
      </trkpt>
      <trkpt lat="47.46207" lon="-2.28416">
        <ele>6</ele>
        <time>2021-04-27T15:33:23Z</time>
      </trkpt>
      <trkpt lat="47.46272" lon="-2.28497">
        <ele>8.9</ele>
        <time>2021-04-27T15:33:42Z</time>
      </trkpt>
      <trkpt lat="47.46145" lon="-2.28884">
        <ele>5.3</ele>
        <time>2021-04-27T15:33:55Z</time>
      </trkpt>
      <trkpt lat="47.4613" lon="-2.2891">
        <ele>3.9</ele>
        <time>2021-04-27T15:33:57Z</time>
      </trkpt>
      <trkpt lat="47.461" lon="-2.28955">
        <ele>4.2</ele>
        <time>2021-04-27T15:34:17Z</time>
      </trkpt>
      <trkpt lat="47.46175" lon="-2.29101">
        <ele>5</ele>
        <time>2021-04-27T15:34:22Z</time>
      </trkpt>
      <trkpt lat="47.46183" lon="-2.29121">
        <ele>5.4</ele>
        <time>2021-04-27T15:34:36Z</time>
      </trkpt>
      <trkpt lat="47.46233" lon="-2.29319">
        <ele>10.1</ele>
        <time>2021-04-27T15:34:49Z</time>
      </trkpt>
      <trkpt lat="47.46297" lon="-2.29485">
        <ele>12.8</ele>
        <time>2021-04-27T15:34:58Z</time>
      </trkpt>
      <trkpt lat="47.46301" lon="-2.29516">
        <ele>13.7</ele>
        <time>2021-04-27T15:35:17Z</time>
      </trkpt>
      <trkpt lat="47.46305" lon="-2.29581">
        <ele>15.9</ele>
        <time>2021-04-27T15:35:33Z</time>
      </trkpt>
      <trkpt lat="47.46309" lon="-2.29608">
        <ele>16.8</ele>
        <time>2021-04-27T15:35:41Z</time>
      </trkpt>
      <trkpt lat="47.46344" lon="-2.29709">
        <ele>17</ele>
        <time>2021-04-27T15:35:56Z</time>
      </trkpt>
      <trkpt lat="47.46365" lon="-2.29759">
        <ele>16.9</ele>
        <time>2021-04-27T15:36:16Z</time>
      </trkpt>
      <trkpt lat="47.46423" lon="-2.29885">
        <ele>14</ele>
        <time>2021-04-27T15:36:20Z</time>
      </trkpt>
      <trkpt lat="47.46465" lon="-2.30027">
        <ele>11.7</ele>
        <time>2021-04-27T15:36:37Z</time>
      </trkpt>
      <trkpt lat="47.46477" lon="-2.30076">
        <ele>11</ele>
        <time>2021-04-27T15:36:39Z</time>
      </trkpt>
      <trkpt lat="47.46495" lon="-2.30149">
        <ele>11.3</ele>
        <time>2021-04-27T15:36:41Z</time>
      </trkpt>
      <trkpt lat="47.46505" lon="-2.30174">
        <ele>11.2</ele>
        <time>2021-04-27T15:36:55Z</time>
      </trkpt>
      <trkpt lat="47.46514" lon="-2.30191">
        <ele>11.9</ele>
        <time>2021-04-27T15:37:05Z</time>
      </trkpt>
      <trkpt lat="47.46547" lon="-2.30232">
        <ele>14.5</ele>
        <time>2021-04-27T15:37:08Z</time>
      </trkpt>
      <trkpt lat="47.46557" lon="-2.3024">
        <ele>15</ele>
        <time>2021-04-27T15:37:15Z</time>
      </trkpt>
      <trkpt lat="47.46527" lon="-2.30324">
        <ele>16</ele>
        <time>2021-04-27T15:37:20Z</time>
      </trkpt>
      <trkpt lat="47.46519" lon="-2.30353">
        <ele>15.7</ele>
        <time>2021-04-27T15:37:35Z</time>
      </trkpt>
      <trkpt lat="47.46514" lon="-2.30387">
        <ele>16.4</ele>
        <time>2021-04-27T15:37:38Z</time>
      </trkpt>
      <trkpt lat="47.4651" lon="-2.30464">
        <ele>17.8</ele>
        <time>2021-04-27T15:37:47Z</time>
      </trkpt>
      <trkpt lat="47.46512" lon="-2.30513">
        <ele>18</ele>
        <time>2021-04-27T15:38:00Z</time>
      </trkpt>
      <trkpt lat="47.46519" lon="-2.3057">
        <ele>17.6</ele>
        <time>2021-04-27T15:38:09Z</time>
      </trkpt>
      <trkpt lat="47.46527" lon="-2.306">
        <ele>16.4</ele>
        <time>2021-04-27T15:38:23Z</time>
      </trkpt>
      <trkpt lat="47.46592" lon="-2.30778">
        <ele>11.3</ele>
        <time>2021-04-27T15:38:39Z</time>
      </trkpt>
      <trkpt lat="47.466" lon="-2.30811">
        <ele>9.8</ele>
        <time>2021-04-27T15:38:47Z</time>
      </trkpt>
      <trkpt lat="47.46601" lon="-2.30827">
        <ele>9.2</ele>
        <time>2021-04-27T15:39:01Z</time>
      </trkpt>
      <trkpt lat="47.46602" lon="-2.30847">
        <ele>8.5</ele>
        <time>2021-04-27T15:39:15Z</time>
      </trkpt>
      <trkpt lat="47.466" lon="-2.30866">
        <ele>7.8</ele>
        <time>2021-04-27T15:39:27Z</time>
      </trkpt>
      <trkpt lat="47.46594" lon="-2.30892">
        <ele>7</ele>
        <time>2021-04-27T15:39:33Z</time>
      </trkpt>
      <trkpt lat="47.46581" lon="-2.30934">
        <ele>6.4</ele>
        <time>2021-04-27T15:39:41Z</time>
      </trkpt>
      <trkpt lat="47.46551" lon="-2.31015">
        <ele>7.1</ele>
        <time>2021-04-27T15:40:01Z</time>
      </trkpt>
      <trkpt lat="47.46547" lon="-2.31033">
        <ele>7.4</ele>
        <time>2021-04-27T15:40:11Z</time>
      </trkpt>
      <trkpt lat="47.4655" lon="-2.31067">
        <ele>7.7</ele>
        <time>2021-04-27T15:40:17Z</time>
      </trkpt>
      <trkpt lat="47.4655" lon="-2.3108">
        <ele>7.3</ele>
        <time>2021-04-27T15:40:20Z</time>
      </trkpt>
      <trkpt lat="47.46523" lon="-2.31148">
        <ele>8.2</ele>
        <time>2021-04-27T15:40:30Z</time>
      </trkpt>
      <trkpt lat="47.46507" lon="-2.31196">
        <ele>8.8</ele>
        <time>2021-04-27T15:40:39Z</time>
      </trkpt>
      <trkpt lat="47.46501" lon="-2.31219">
        <ele>9</ele>
        <time>2021-04-27T15:40:58Z</time>
      </trkpt>
      <trkpt lat="47.46501" lon="-2.31234">
        <ele>9</ele>
        <time>2021-04-27T15:41:13Z</time>
      </trkpt>
      <trkpt lat="47.46503" lon="-2.31249">
        <ele>9</ele>
        <time>2021-04-27T15:41:27Z</time>
      </trkpt>
      <trkpt lat="47.46512" lon="-2.31268">
        <ele>9</ele>
        <time>2021-04-27T15:41:46Z</time>
      </trkpt>
      <trkpt lat="47.46525" lon="-2.31286">
        <ele>9</ele>
        <time>2021-04-27T15:41:58Z</time>
      </trkpt>
      <trkpt lat="47.46541" lon="-2.31306">
        <ele>9.5</ele>
        <time>2021-04-27T15:42:06Z</time>
      </trkpt>
      <trkpt lat="47.46623" lon="-2.31373">
        <ele>12.2</ele>
        <time>2021-04-27T15:42:26Z</time>
      </trkpt>
      <trkpt lat="47.46647" lon="-2.314">
        <ele>13.1</ele>
        <time>2021-04-27T15:42:41Z</time>
      </trkpt>
      <trkpt lat="47.46653" lon="-2.31415">
        <ele>13.5</ele>
        <time>2021-04-27T15:42:48Z</time>
      </trkpt>
      <trkpt lat="47.46654" lon="-2.31431">
        <ele>14.1</ele>
        <time>2021-04-27T15:43:08Z</time>
      </trkpt>
      <trkpt lat="47.46651" lon="-2.31458">
        <ele>14.4</ele>
        <time>2021-04-27T15:43:26Z</time>
      </trkpt>
      <trkpt lat="47.46639" lon="-2.31505">
        <ele>14.2</ele>
        <time>2021-04-27T15:43:43Z</time>
      </trkpt>
      <trkpt lat="47.4662" lon="-2.31563">
        <ele>14.4</ele>
        <time>2021-04-27T15:43:53Z</time>
      </trkpt>
      <trkpt lat="47.46561" lon="-2.31656">
        <ele>14.8</ele>
        <time>2021-04-27T15:44:10Z</time>
      </trkpt>
      <trkpt lat="47.46552" lon="-2.31679">
        <ele>14.9</ele>
        <time>2021-04-27T15:44:24Z</time>
      </trkpt>
      <trkpt lat="47.46547" lon="-2.31698">
        <ele>14.8</ele>
        <time>2021-04-27T15:44:44Z</time>
      </trkpt>
      <trkpt lat="47.46548" lon="-2.31717">
        <ele>15.5</ele>
        <time>2021-04-27T15:44:56Z</time>
      </trkpt>
      <trkpt lat="47.46553" lon="-2.31736">
        <ele>16.4</ele>
        <time>2021-04-27T15:45:07Z</time>
      </trkpt>
      <trkpt lat="47.46573" lon="-2.3178">
        <ele>18.7</ele>
        <time>2021-04-27T15:45:22Z</time>
      </trkpt>
      <trkpt lat="47.46613" lon="-2.31858">
        <ele>21.9</ele>
        <time>2021-04-27T15:45:25Z</time>
      </trkpt>
      <trkpt lat="47.46621" lon="-2.31885">
        <ele>23.2</ele>
        <time>2021-04-27T15:45:28Z</time>
      </trkpt>
      <trkpt lat="47.46645" lon="-2.3208">
        <ele>25</ele>
        <time>2021-04-27T15:45:36Z</time>
      </trkpt>
      <trkpt lat="47.46651" lon="-2.32111">
        <ele>24.4</ele>
        <time>2021-04-27T15:45:45Z</time>
      </trkpt>
      <trkpt lat="47.46529" lon="-2.32176">
        <ele>21.8</ele>
        <time>2021-04-27T15:45:57Z</time>
      </trkpt>
      <trkpt lat="47.46515" lon="-2.32177">
        <ele>21</ele>
        <time>2021-04-27T15:46:13Z</time>
      </trkpt>
      <trkpt lat="47.46504" lon="-2.32175">
        <ele>20.3</ele>
        <time>2021-04-27T15:46:33Z</time>
      </trkpt>
      <trkpt lat="47.46498" lon="-2.32183">
        <ele>20</ele>
        <time>2021-04-27T15:46:49Z</time>
      </trkpt>
      <trkpt lat="47.4649" lon="-2.32239">
        <ele>21</ele>
        <time>2021-04-27T15:46:59Z</time>
      </trkpt>
      <trkpt lat="47.46488" lon="-2.32274">
        <ele>21.5</ele>
        <time>2021-04-27T15:47:18Z</time>
      </trkpt>
      <trkpt lat="47.46491" lon="-2.32295">
        <ele>21.3</ele>
        <time>2021-04-27T15:47:20Z</time>
      </trkpt>
      <trkpt lat="47.46504" lon="-2.32333">
        <ele>21.3</ele>
        <time>2021-04-27T15:47:35Z</time>
      </trkpt>
      <trkpt lat="47.46502" lon="-2.32342">
        <ele>21.1</ele>
        <time>2021-04-27T15:47:51Z</time>
      </trkpt>
      <trkpt lat="47.46477" lon="-2.32378">
        <ele>20.6</ele>
        <time>2021-04-27T15:47:57Z</time>
      </trkpt>
      <trkpt lat="47.46458" lon="-2.32409">
        <ele>21.1</ele>
        <time>2021-04-27T15:48:07Z</time>
      </trkpt>
      <trkpt lat="47.46422" lon="-2.3244">
        <ele>21.1</ele>
        <time>2021-04-27T15:48:22Z</time>
      </trkpt>
      <trkpt lat="47.46405" lon="-2.3245">
        <ele>20.7</ele>
        <time>2021-04-27T15:48:30Z</time>
      </trkpt>
      <trkpt lat="47.46364" lon="-2.32447">
        <ele>19.1</ele>
        <time>2021-04-27T15:48:46Z</time>
      </trkpt>
      <trkpt lat="47.46276" lon="-2.32435">
        <ele>19.9</ele>
        <time>2021-04-27T15:48:52Z</time>
      </trkpt>
      <trkpt lat="47.46234" lon="-2.32437">
        <ele>18.4</ele>
        <time>2021-04-27T15:49:01Z</time>
      </trkpt>
      <trkpt lat="47.4618" lon="-2.32444">
        <ele>18</ele>
        <time>2021-04-27T15:49:10Z</time>
      </trkpt>
      <trkpt lat="47.46151" lon="-2.32461">
        <ele>18.8</ele>
        <time>2021-04-27T15:49:18Z</time>
      </trkpt>
      <trkpt lat="47.46118" lon="-2.32485">
        <ele>19.8</ele>
        <time>2021-04-27T15:49:22Z</time>
      </trkpt>
      <trkpt lat="47.46128" lon="-2.32541">
        <ele>20.4</ele>
        <time>2021-04-27T15:49:37Z</time>
      </trkpt>
      <trkpt lat="47.46144" lon="-2.32589">
        <ele>20.9</ele>
        <time>2021-04-27T15:49:43Z</time>
      </trkpt>
      <trkpt lat="47.46159" lon="-2.32607">
        <ele>20.9</ele>
        <time>2021-04-27T15:50:01Z</time>
      </trkpt>
      <trkpt lat="47.46172" lon="-2.32618">
        <ele>20.9</ele>
        <time>2021-04-27T15:50:14Z</time>
      </trkpt>
      <trkpt lat="47.46207" lon="-2.32636">
        <ele>20.9</ele>
        <time>2021-04-27T15:50:26Z</time>
      </trkpt>
      <trkpt lat="47.46215" lon="-2.32648">
        <ele>21</ele>
        <time>2021-04-27T15:50:32Z</time>
      </trkpt>
      <trkpt lat="47.46248" lon="-2.32733">
        <ele>22.3</ele>
        <time>2021-04-27T15:50:50Z</time>
      </trkpt>
      <trkpt lat="47.46259" lon="-2.3278">
        <ele>23.1</ele>
        <time>2021-04-27T15:51:04Z</time>
      </trkpt>
      <trkpt lat="47.46306" lon="-2.33087">
        <ele>31</ele>
        <time>2021-04-27T15:51:21Z</time>
      </trkpt>
      <trkpt lat="47.46332" lon="-2.3311">
        <ele>32</ele>
        <time>2021-04-27T15:51:33Z</time>
      </trkpt>
      <trkpt lat="47.46321" lon="-2.33168">
        <ele>33.6</ele>
        <time>2021-04-27T15:51:38Z</time>
      </trkpt>
      <trkpt lat="47.46323" lon="-2.33203">
        <ele>33.9</ele>
        <time>2021-04-27T15:51:58Z</time>
      </trkpt>
      <trkpt lat="47.46333" lon="-2.33298">
        <ele>35.7</ele>
        <time>2021-04-27T15:52:14Z</time>
      </trkpt>
      <trkpt lat="47.46338" lon="-2.33549">
        <ele>34.6</ele>
        <time>2021-04-27T15:52:20Z</time>
      </trkpt>
      <trkpt lat="47.46341" lon="-2.3358">
        <ele>34.3</ele>
        <time>2021-04-27T15:52:26Z</time>
      </trkpt>
      <trkpt lat="47.46345" lon="-2.33594">
        <ele>33.8</ele>
        <time>2021-04-27T15:52:35Z</time>
      </trkpt>
      <trkpt lat="47.46354" lon="-2.33612">
        <ele>33.4</ele>
        <time>2021-04-27T15:52:40Z</time>
      </trkpt>
      <trkpt lat="47.46388" lon="-2.33668">
        <ele>34.9</ele>
        <time>2021-04-27T15:52:46Z</time>
      </trkpt>
      <trkpt lat="47.46403" lon="-2.33688">
        <ele>35.1</ele>
        <time>2021-04-27T15:52:49Z</time>
      </trkpt>
      <trkpt lat="47.46443" lon="-2.33733">
        <ele>35.6</ele>
        <time>2021-04-27T15:53:04Z</time>
      </trkpt>
      <trkpt lat="47.46485" lon="-2.33764">
        <ele>36.9</ele>
        <time>2021-04-27T15:53:21Z</time>
      </trkpt>
      <trkpt lat="47.46502" lon="-2.3378">
        <ele>37.1</ele>
        <time>2021-04-27T15:53:34Z</time>
      </trkpt>
      <trkpt lat="47.4652" lon="-2.33808">
        <ele>37.7</ele>
        <time>2021-04-27T15:53:39Z</time>
      </trkpt>
      <trkpt lat="47.46555" lon="-2.33903">
        <ele>40</ele>
        <time>2021-04-27T15:53:58Z</time>
      </trkpt>
      <trkpt lat="47.46569" lon="-2.33923">
        <ele>40.6</ele>
        <time>2021-04-27T15:54:10Z</time>
      </trkpt>
      <trkpt lat="47.46592" lon="-2.33945">
        <ele>41</ele>
        <time>2021-04-27T15:54:29Z</time>
      </trkpt>
      <trkpt lat="47.46628" lon="-2.33969">
        <ele>41.9</ele>
        <time>2021-04-27T15:54:43Z</time>
      </trkpt>
      <trkpt lat="47.46664" lon="-2.34015">
        <ele>42</ele>
        <time>2021-04-27T15:54:54Z</time>
      </trkpt>
      <trkpt lat="47.46685" lon="-2.34059">
        <ele>42</ele>
        <time>2021-04-27T15:55:04Z</time>
      </trkpt>
      <trkpt lat="47.46715" lon="-2.34133">
        <ele>42.7</ele>
        <time>2021-04-27T15:55:17Z</time>
      </trkpt>
      <trkpt lat="47.46724" lon="-2.34149">
        <ele>43</ele>
        <time>2021-04-27T15:55:32Z</time>
      </trkpt>
      <trkpt lat="47.46754" lon="-2.34178">
        <ele>43.5</ele>
        <time>2021-04-27T15:55:34Z</time>
      </trkpt>
      <trkpt lat="47.4679" lon="-2.34209">
        <ele>44.5</ele>
        <time>2021-04-27T15:55:40Z</time>
      </trkpt>
      <trkpt lat="47.46809" lon="-2.34256">
        <ele>45</ele>
        <time>2021-04-27T15:55:47Z</time>
      </trkpt>
      <trkpt lat="47.46845" lon="-2.34336">
        <ele>46</ele>
        <time>2021-04-27T15:55:59Z</time>
      </trkpt>
      <trkpt lat="47.46849" lon="-2.34349">
        <ele>45.7</ele>
        <time>2021-04-27T15:56:07Z</time>
      </trkpt>
      <trkpt lat="47.46862" lon="-2.34409">
        <ele>45.3</ele>
        <time>2021-04-27T15:56:11Z</time>
      </trkpt>
      <trkpt lat="47.46887" lon="-2.34564">
        <ele>45</ele>
        <time>2021-04-27T15:56:16Z</time>
      </trkpt>
      <trkpt lat="47.46905" lon="-2.34641">
        <ele>44</ele>
        <time>2021-04-27T15:56:20Z</time>
      </trkpt>
      <trkpt lat="47.4691" lon="-2.34655">
        <ele>44</ele>
        <time>2021-04-27T15:56:23Z</time>
      </trkpt>
      <trkpt lat="47.4692" lon="-2.34669">
        <ele>44</ele>
        <time>2021-04-27T15:56:40Z</time>
      </trkpt>
      <trkpt lat="47.46961" lon="-2.34716">
        <ele>44</ele>
        <time>2021-04-27T15:56:43Z</time>
      </trkpt>
      <trkpt lat="47.46984" lon="-2.34757">
        <ele>44</ele>
        <time>2021-04-27T15:57:00Z</time>
      </trkpt>
      <trkpt lat="47.47001" lon="-2.34813">
        <ele>44</ele>
        <time>2021-04-27T15:57:12Z</time>
      </trkpt>
      <trkpt lat="47.47014" lon="-2.3487">
        <ele>43</ele>
        <time>2021-04-27T15:57:29Z</time>
      </trkpt>
      <trkpt lat="47.47032" lon="-2.34943">
        <ele>41.2</ele>
        <time>2021-04-27T15:57:46Z</time>
      </trkpt>
      <trkpt lat="47.47046" lon="-2.34974">
        <ele>40.9</ele>
        <time>2021-04-27T15:57:48Z</time>
      </trkpt>
      <trkpt lat="47.47109" lon="-2.35056">
        <ele>39</ele>
        <time>2021-04-27T15:57:57Z</time>
      </trkpt>
      <trkpt lat="47.47119" lon="-2.35071">
        <ele>38.6</ele>
        <time>2021-04-27T15:58:16Z</time>
      </trkpt>
      <trkpt lat="47.47155" lon="-2.35138">
        <ele>40</ele>
        <time>2021-04-27T15:58:29Z</time>
      </trkpt>
      <trkpt lat="47.47168" lon="-2.35158">
        <ele>40</ele>
        <time>2021-04-27T15:58:46Z</time>
      </trkpt>
      <trkpt lat="47.47207" lon="-2.35208">
        <ele>40</ele>
        <time>2021-04-27T15:59:00Z</time>
      </trkpt>
      <trkpt lat="47.47172" lon="-2.35261">
        <ele>40</ele>
        <time>2021-04-27T15:59:19Z</time>
      </trkpt>
      <trkpt lat="47.47153" lon="-2.35279">
        <ele>40</ele>
        <time>2021-04-27T15:59:22Z</time>
      </trkpt>
      <trkpt lat="47.47099" lon="-2.35311">
        <ele>39</ele>
        <time>2021-04-27T15:59:37Z</time>
      </trkpt>
      <trkpt lat="47.47106" lon="-2.35371">
        <ele>39</ele>
        <time>2021-04-27T15:59:49Z</time>
      </trkpt>
      <trkpt lat="47.47106" lon="-2.35411">
        <ele>39</ele>
        <time>2021-04-27T15:59:51Z</time>
      </trkpt>
      <trkpt lat="47.47099" lon="-2.35516">
        <ele>39</ele>
        <time>2021-04-27T15:59:55Z</time>
      </trkpt>
      <trkpt lat="47.47073" lon="-2.35677">
        <ele>38.2</ele>
        <time>2021-04-27T16:00:13Z</time>
      </trkpt>
      <trkpt lat="47.47042" lon="-2.35876">
        <ele>37.3</ele>
        <time>2021-04-27T16:00:27Z</time>
      </trkpt>
      <trkpt lat="47.47091" lon="-2.35902">
        <ele>35.1</ele>
        <time>2021-04-27T16:00:36Z</time>
      </trkpt>
      <trkpt lat="47.47073" lon="-2.3612">
        <ele>36.3</ele>
        <time>2021-04-27T16:00:50Z</time>
      </trkpt>
      <trkpt lat="47.47089" lon="-2.36268">
        <ele>37.6</ele>
        <time>2021-04-27T16:00:54Z</time>
      </trkpt>
      <trkpt lat="47.47087" lon="-2.36446">
        <ele>33.3</ele>
        <time>2021-04-27T16:00:56Z</time>
      </trkpt>
      <trkpt lat="47.47086" lon="-2.36533">
        <ele>34</ele>
        <time>2021-04-27T16:00:58Z</time>
      </trkpt>
      <trkpt lat="47.47078" lon="-2.36581">
        <ele>34.9</ele>
        <time>2021-04-27T16:01:18Z</time>
      </trkpt>
      <trkpt lat="47.47076" lon="-2.36614">
        <ele>35</ele>
        <time>2021-04-27T16:01:30Z</time>
      </trkpt>
      <trkpt lat="47.47077" lon="-2.36667">
        <ele>35</ele>
        <time>2021-04-27T16:01:40Z</time>
      </trkpt>
      <trkpt lat="47.47073" lon="-2.36682">
        <ele>35</ele>
        <time>2021-04-27T16:01:44Z</time>
      </trkpt>
      <trkpt lat="47.47026" lon="-2.36725">
        <ele>33</ele>
        <time>2021-04-27T16:01:49Z</time>
      </trkpt>
      <trkpt lat="47.47078" lon="-2.36884">
        <ele>32</ele>
        <time>2021-04-27T16:02:03Z</time>
      </trkpt>
      <trkpt lat="47.47208" lon="-2.37153">
        <ele>39</ele>
        <time>2021-04-27T16:02:23Z</time>
      </trkpt>
      <trkpt lat="47.47327" lon="-2.37056">
        <ele>40.8</ele>
        <time>2021-04-27T16:02:25Z</time>
      </trkpt>
      <trkpt lat="47.47379" lon="-2.37004">
        <ele>41.8</ele>
        <time>2021-04-27T16:02:39Z</time>
      </trkpt>
      <trkpt lat="47.47454" lon="-2.36943">
        <ele>43</ele>
        <time>2021-04-27T16:02:58Z</time>
      </trkpt>
      <trkpt lat="47.47557" lon="-2.36833">
        <ele>44</ele>
        <time>2021-04-27T16:03:18Z</time>
      </trkpt>
      <trkpt lat="47.47623" lon="-2.36758">
        <ele>45</ele>
        <time>2021-04-27T16:03:28Z</time>
      </trkpt>
      <trkpt lat="47.4772" lon="-2.36643">
        <ele>46</ele>
        <time>2021-04-27T16:03:40Z</time>
      </trkpt>
      <trkpt lat="47.47789" lon="-2.36538">
        <ele>48.4</ele>
        <time>2021-04-27T16:03:44Z</time>
      </trkpt>
      <trkpt lat="47.47794" lon="-2.3651">
        <ele>48.6</ele>
        <time>2021-04-27T16:04:04Z</time>
      </trkpt>
      <trkpt lat="47.47791" lon="-2.3647">
        <ele>48.5</ele>
        <time>2021-04-27T16:04:13Z</time>
      </trkpt>
      <trkpt lat="47.47779" lon="-2.36385">
        <ele>48.1</ele>
        <time>2021-04-27T16:04:26Z</time>
      </trkpt>
      <trkpt lat="47.47773" lon="-2.36354">
        <ele>47.9</ele>
        <time>2021-04-27T16:04:43Z</time>
      </trkpt>
      <trkpt lat="47.47762" lon="-2.36308">
        <ele>48</ele>
        <time>2021-04-27T16:04:54Z</time>
      </trkpt>
      <trkpt lat="47.47758" lon="-2.36281">
        <ele>48</ele>
        <time>2021-04-27T16:05:05Z</time>
      </trkpt>
      <trkpt lat="47.47754" lon="-2.36236">
        <ele>48.6</ele>
        <time>2021-04-27T16:05:12Z</time>
      </trkpt>
      <trkpt lat="47.47751" lon="-2.3618">
        <ele>49.5</ele>
        <time>2021-04-27T16:05:22Z</time>
      </trkpt>
      <trkpt lat="47.47752" lon="-2.36145">
        <ele>50</ele>
        <time>2021-04-27T16:05:38Z</time>
      </trkpt>
      <trkpt lat="47.47762" lon="-2.36102">
        <ele>50.2</ele>
        <time>2021-04-27T16:05:52Z</time>
      </trkpt>
      <trkpt lat="47.47764" lon="-2.36068">
        <ele>50.8</ele>
        <time>2021-04-27T16:05:59Z</time>
      </trkpt>
      <trkpt lat="47.47763" lon="-2.36032">
        <ele>51.4</ele>
        <time>2021-04-27T16:06:16Z</time>
      </trkpt>
      <trkpt lat="47.4776" lon="-2.35999">
        <ele>51</ele>
        <time>2021-04-27T16:06:24Z</time>
      </trkpt>
      <trkpt lat="47.47738" lon="-2.35877">
        <ele>49.7</ele>
        <time>2021-04-27T16:06:37Z</time>
      </trkpt>
      <trkpt lat="47.47731" lon="-2.35621">
        <ele>47</ele>
        <time>2021-04-27T16:06:39Z</time>
      </trkpt>
      <trkpt lat="47.47733" lon="-2.35497">
        <ele>45.9</ele>
        <time>2021-04-27T16:06:51Z</time>
      </trkpt>
      <trkpt lat="47.47735" lon="-2.35477">
        <ele>45.2</ele>
        <time>2021-04-27T16:07:00Z</time>
      </trkpt>
      <trkpt lat="47.47741" lon="-2.35461">
        <ele>45</ele>
        <time>2021-04-27T16:07:20Z</time>
      </trkpt>
      <trkpt lat="47.47751" lon="-2.35453">
        <ele>45</ele>
        <time>2021-04-27T16:07:26Z</time>
      </trkpt>
      <trkpt lat="47.47764" lon="-2.35448">
        <ele>45.5</ele>
        <time>2021-04-27T16:07:30Z</time>
      </trkpt>
      <trkpt lat="47.47781" lon="-2.35489">
        <ele>46</ele>
        <time>2021-04-27T16:07:44Z</time>
      </trkpt>
      <trkpt lat="47.478" lon="-2.35515">
        <ele>46</ele>
        <time>2021-04-27T16:08:02Z</time>
      </trkpt>
      <trkpt lat="47.47819" lon="-2.35546">
        <ele>46</ele>
        <time>2021-04-27T16:08:21Z</time>
      </trkpt>
      <trkpt lat="47.47883" lon="-2.35585">
        <ele>45.2</ele>
        <time>2021-04-27T16:08:29Z</time>
      </trkpt>
      <trkpt lat="47.4792" lon="-2.35599">
        <ele>44.9</ele>
        <time>2021-04-27T16:08:41Z</time>
      </trkpt>
      <trkpt lat="47.47962" lon="-2.35599">
        <ele>44</ele>
        <time>2021-04-27T16:08:52Z</time>
      </trkpt>
      <trkpt lat="47.47995" lon="-2.35595">
        <ele>43.7</ele>
        <time>2021-04-27T16:08:56Z</time>
      </trkpt>
      <trkpt lat="47.48023" lon="-2.35592">
        <ele>44</ele>
        <time>2021-04-27T16:09:08Z</time>
      </trkpt>
      <trkpt lat="47.48054" lon="-2.35574">
        <ele>44.3</ele>
        <time>2021-04-27T16:09:17Z</time>
      </trkpt>
      <trkpt lat="47.48109" lon="-2.3553">
        <ele>45</ele>
        <time>2021-04-27T16:09:28Z</time>
      </trkpt>
      <trkpt lat="47.48121" lon="-2.35526">
        <ele>45.1</ele>
        <time>2021-04-27T16:09:37Z</time>
      </trkpt>
      <trkpt lat="47.48215" lon="-2.35522">
        <ele>44.1</ele>
        <time>2021-04-27T16:09:45Z</time>
      </trkpt>
      <trkpt lat="47.48241" lon="-2.35446">
        <ele>44</ele>
        <time>2021-04-27T16:09:52Z</time>
      </trkpt>
      <trkpt lat="47.48247" lon="-2.35441">
        <ele>44</ele>
        <time>2021-04-27T16:09:56Z</time>
      </trkpt>
      <trkpt lat="47.4825" lon="-2.3544">
        <ele>44</ele>
        <time>2021-04-27T16:10:08Z</time>
      </trkpt>
      <trkpt lat="47.4825" lon="-2.35464">
        <ele>44</ele>
        <time>2021-04-27T16:10:16Z</time>
      </trkpt>
      <trkpt lat="47.48261" lon="-2.35473">
        <ele>43.6</ele>
        <time>2021-04-27T16:10:34Z</time>
      </trkpt>
      <trkpt lat="47.48283" lon="-2.35499">
        <ele>42</ele>
        <time>2021-04-27T16:10:39Z</time>
      </trkpt>
      <trkpt lat="47.48355" lon="-2.35592">
        <ele>41.2</ele>
        <time>2021-04-27T16:10:46Z</time>
      </trkpt>
      <trkpt lat="47.48435" lon="-2.35733">
        <ele>37.3</ele>
        <time>2021-04-27T16:10:57Z</time>
      </trkpt>
      <trkpt lat="47.48465" lon="-2.35808">
        <ele>38.3</ele>
        <time>2021-04-27T16:11:15Z</time>
      </trkpt>
      <trkpt lat="47.48498" lon="-2.35907">
        <ele>40</ele>
        <time>2021-04-27T16:11:24Z</time>
      </trkpt>
      <trkpt lat="47.48509" lon="-2.359">
        <ele>40.1</ele>
        <time>2021-04-27T16:11:30Z</time>
      </trkpt>
      <trkpt lat="47.48548" lon="-2.35883">
        <ele>40.6</ele>
        <time>2021-04-27T16:11:34Z</time>
      </trkpt>
      <trkpt lat="47.48566" lon="-2.35885">
        <ele>40.9</ele>
        <time>2021-04-27T16:11:44Z</time>
      </trkpt>
      <trkpt lat="47.48593" lon="-2.35891">
        <ele>41</ele>
        <time>2021-04-27T16:11:50Z</time>
      </trkpt>
      <trkpt lat="47.48622" lon="-2.35892">
        <ele>41.1</ele>
        <time>2021-04-27T16:12:06Z</time>
      </trkpt>
      <trkpt lat="47.4864" lon="-2.3589">
        <ele>41.1</ele>
        <time>2021-04-27T16:12:10Z</time>
      </trkpt>
      <trkpt lat="47.48721" lon="-2.35869">
        <ele>41.3</ele>
        <time>2021-04-27T16:12:17Z</time>
      </trkpt>
      <trkpt lat="47.48792" lon="-2.35847">
        <ele>41</ele>
        <time>2021-04-27T16:12:22Z</time>
      </trkpt>
      <trkpt lat="47.48832" lon="-2.35845">
        <ele>41</ele>
        <time>2021-04-27T16:12:26Z</time>
      </trkpt>
      <trkpt lat="47.48859" lon="-2.3585">
        <ele>41</ele>
        <time>2021-04-27T16:12:35Z</time>
      </trkpt>
      <trkpt lat="47.48964" lon="-2.3589">
        <ele>40.3</ele>
        <time>2021-04-27T16:12:55Z</time>
      </trkpt>
      <trkpt lat="47.49024" lon="-2.35915">
        <ele>39.1</ele>
        <time>2021-04-27T16:13:13Z</time>
      </trkpt>
      <trkpt lat="47.49037" lon="-2.35918">
        <ele>38.7</ele>
        <time>2021-04-27T16:13:33Z</time>
      </trkpt>
      <trkpt lat="47.49135" lon="-2.35955">
        <ele>36</ele>
        <time>2021-04-27T16:13:45Z</time>
      </trkpt>
      <trkpt lat="47.49213" lon="-2.35962">
        <ele>34.1</ele>
        <time>2021-04-27T16:13:58Z</time>
      </trkpt>
      <trkpt lat="47.49234" lon="-2.35969">
        <ele>33.6</ele>
        <time>2021-04-27T16:14:18Z</time>
      </trkpt>
      <trkpt lat="47.49275" lon="-2.3599">
        <ele>33</ele>
        <time>2021-04-27T16:14:32Z</time>
      </trkpt>
      <trkpt lat="47.4931" lon="-2.36004">
        <ele>32</ele>
        <time>2021-04-27T16:14:47Z</time>
      </trkpt>
      <trkpt lat="47.49322" lon="-2.36008">
        <ele>31.8</ele>
        <time>2021-04-27T16:15:06Z</time>
      </trkpt>
      <trkpt lat="47.49341" lon="-2.36011">
        <ele>31.2</ele>
        <time>2021-04-27T16:15:26Z</time>
      </trkpt>
      <trkpt lat="47.49343" lon="-2.3588">
        <ele>28.4</ele>
        <time>2021-04-27T16:15:35Z</time>
      </trkpt>
      <trkpt lat="47.49318" lon="-2.35633">
        <ele>23.7</ele>
        <time>2021-04-27T16:15:54Z</time>
      </trkpt>
      <trkpt lat="47.49349" lon="-2.35632">
        <ele>23.4</ele>
        <time>2021-04-27T16:16:07Z</time>
      </trkpt>
      <trkpt lat="47.49384" lon="-2.35638">
        <ele>22.2</ele>
        <time>2021-04-27T16:16:15Z</time>
      </trkpt>
      <trkpt lat="47.49396" lon="-2.35644">
        <ele>22.1</ele>
        <time>2021-04-27T16:16:31Z</time>
      </trkpt>
      <trkpt lat="47.4945" lon="-2.35676">
        <ele>20.5</ele>
        <time>2021-04-27T16:16:47Z</time>
      </trkpt>
      <trkpt lat="47.49453" lon="-2.35636">
        <ele>21.8</ele>
        <time>2021-04-27T16:17:00Z</time>
      </trkpt>
      <trkpt lat="47.4945" lon="-2.35559">
        <ele>23.7</ele>
        <time>2021-04-27T16:17:16Z</time>
      </trkpt>
      <trkpt lat="47.49442" lon="-2.35468">
        <ele>23.9</ele>
        <time>2021-04-27T16:17:26Z</time>
      </trkpt>
      <trkpt lat="47.49436" lon="-2.35439">
        <ele>23.6</ele>
        <time>2021-04-27T16:17:38Z</time>
      </trkpt>
      <trkpt lat="47.49416" lon="-2.35356">
        <ele>24</ele>
        <time>2021-04-27T16:17:44Z</time>
      </trkpt>
      <trkpt lat="47.49409" lon="-2.35336">
        <ele>24.3</ele>
        <time>2021-04-27T16:17:52Z</time>
      </trkpt>
      <trkpt lat="47.49402" lon="-2.35326">
        <ele>24.4</ele>
        <time>2021-04-27T16:18:04Z</time>
      </trkpt>
      <trkpt lat="47.49396" lon="-2.35324">
        <ele>24.7</ele>
        <time>2021-04-27T16:18:22Z</time>
      </trkpt>
      <trkpt lat="47.49357" lon="-2.35329">
        <ele>25.1</ele>
        <time>2021-04-27T16:18:25Z</time>
      </trkpt>
      <trkpt lat="47.49296" lon="-2.35344">
        <ele>24</ele>
        <time>2021-04-27T16:18:39Z</time>
      </trkpt>
      <trkpt lat="47.49288" lon="-2.35342">
        <ele>23.7</ele>
        <time>2021-04-27T16:18:56Z</time>
      </trkpt>
      <trkpt lat="47.49281" lon="-2.35336">
        <ele>23.2</ele>
        <time>2021-04-27T16:19:06Z</time>
      </trkpt>
      <trkpt lat="47.49272" lon="-2.35322">
        <ele>23.1</ele>
        <time>2021-04-27T16:19:24Z</time>
      </trkpt>
      <trkpt lat="47.49246" lon="-2.35272">
        <ele>22.8</ele>
        <time>2021-04-27T16:19:41Z</time>
      </trkpt>
      <trkpt lat="47.49232" lon="-2.3524">
        <ele>23.1</ele>
        <time>2021-04-27T16:19:50Z</time>
      </trkpt>
      <trkpt lat="47.4923" lon="-2.35222">
        <ele>24</ele>
        <time>2021-04-27T16:20:00Z</time>
      </trkpt>
      <trkpt lat="47.49225" lon="-2.35147">
        <ele>26.7</ele>
        <time>2021-04-27T16:20:15Z</time>
      </trkpt>
      <trkpt lat="47.4921" lon="-2.35015">
        <ele>29</ele>
        <time>2021-04-27T16:20:34Z</time>
      </trkpt>
      <trkpt lat="47.49146" lon="-2.34743">
        <ele>26.3</ele>
        <time>2021-04-27T16:20:45Z</time>
      </trkpt>
      <trkpt lat="47.49137" lon="-2.34696">
        <ele>23.2</ele>
        <time>2021-04-27T16:20:56Z</time>
      </trkpt>
      <trkpt lat="47.4911" lon="-2.34552">
        <ele>23</ele>
        <time>2021-04-27T16:21:01Z</time>
      </trkpt>
      <trkpt lat="47.49104" lon="-2.34538">
        <ele>22.8</ele>
        <time>2021-04-27T16:21:14Z</time>
      </trkpt>
      <trkpt lat="47.49097" lon="-2.34528">
        <ele>23.1</ele>
        <time>2021-04-27T16:21:34Z</time>
      </trkpt>
      <trkpt lat="47.49088" lon="-2.34525">
        <ele>24.3</ele>
        <time>2021-04-27T16:21:40Z</time>
      </trkpt>
      <trkpt lat="47.49074" lon="-2.34532">
        <ele>26.2</ele>
        <time>2021-04-27T16:21:49Z</time>
      </trkpt>
      <trkpt lat="47.49061" lon="-2.34553">
        <ele>27.8</ele>
        <time>2021-04-27T16:22:07Z</time>
      </trkpt>
      <trkpt lat="47.49039" lon="-2.34575">
        <ele>29.8</ele>
        <time>2021-04-27T16:22:19Z</time>
      </trkpt>
      <trkpt lat="47.49025" lon="-2.3458">
        <ele>30</ele>
        <time>2021-04-27T16:22:35Z</time>
      </trkpt>
      <trkpt lat="47.49003" lon="-2.3458">
        <ele>30.1</ele>
        <time>2021-04-27T16:22:53Z</time>
      </trkpt>
      <trkpt lat="47.48977" lon="-2.34572">
        <ele>30.9</ele>
        <time>2021-04-27T16:23:00Z</time>
      </trkpt>
      <trkpt lat="47.48962" lon="-2.34552">
        <ele>31.3</ele>
        <time>2021-04-27T16:23:06Z</time>
      </trkpt>
      <trkpt lat="47.4894" lon="-2.34513">
        <ele>31.1</ele>
        <time>2021-04-27T16:23:13Z</time>
      </trkpt>
      <trkpt lat="47.48931" lon="-2.34503">
        <ele>31.1</ele>
        <time>2021-04-27T16:23:26Z</time>
      </trkpt>
      <trkpt lat="47.48905" lon="-2.34488">
        <ele>30.8</ele>
        <time>2021-04-27T16:23:35Z</time>
      </trkpt>
      <trkpt lat="47.48845" lon="-2.34464">
        <ele>30.4</ele>
        <time>2021-04-27T16:23:51Z</time>
      </trkpt>
      <trkpt lat="47.48825" lon="-2.3446">
        <ele>30.6</ele>
        <time>2021-04-27T16:24:10Z</time>
      </trkpt>
      <trkpt lat="47.48811" lon="-2.34461">
        <ele>30.6</ele>
        <time>2021-04-27T16:24:16Z</time>
      </trkpt>
      <trkpt lat="47.48721" lon="-2.3448">
        <ele>30.3</ele>
        <time>2021-04-27T16:24:30Z</time>
      </trkpt>
      <trkpt lat="47.48671" lon="-2.34481">
        <ele>30</ele>
        <time>2021-04-27T16:24:49Z</time>
      </trkpt>
      <trkpt lat="47.48655" lon="-2.34473">
        <ele>30</ele>
        <time>2021-04-27T16:24:52Z</time>
      </trkpt>
      <trkpt lat="47.48565" lon="-2.34404">
        <ele>31.7</ele>
        <time>2021-04-27T16:25:05Z</time>
      </trkpt>
      <trkpt lat="47.48539" lon="-2.34394">
        <ele>32</ele>
        <time>2021-04-27T16:25:13Z</time>
      </trkpt>
      <trkpt lat="47.48469" lon="-2.34388">
        <ele>33</ele>
        <time>2021-04-27T16:25:31Z</time>
      </trkpt>
      <trkpt lat="47.4845" lon="-2.34388">
        <ele>33</ele>
        <time>2021-04-27T16:25:51Z</time>
      </trkpt>
      <trkpt lat="47.48435" lon="-2.34396">
        <ele>33.3</ele>
        <time>2021-04-27T16:26:08Z</time>
      </trkpt>
      <trkpt lat="47.48426" lon="-2.34399">
        <ele>33.4</ele>
        <time>2021-04-27T16:26:20Z</time>
      </trkpt>
      <trkpt lat="47.48399" lon="-2.34396">
        <ele>33.7</ele>
        <time>2021-04-27T16:26:38Z</time>
      </trkpt>
      <trkpt lat="47.48371" lon="-2.34379">
        <ele>34.1</ele>
        <time>2021-04-27T16:26:47Z</time>
      </trkpt>
      <trkpt lat="47.48351" lon="-2.34361">
        <ele>35</ele>
        <time>2021-04-27T16:26:57Z</time>
      </trkpt>
      <trkpt lat="47.48296" lon="-2.34333">
        <ele>36</ele>
        <time>2021-04-27T16:27:01Z</time>
      </trkpt>
      <trkpt lat="47.48236" lon="-2.34309">
        <ele>37.1</ele>
        <time>2021-04-27T16:27:12Z</time>
      </trkpt>
      <trkpt lat="47.48236" lon="-2.34264">
        <ele>37</ele>
        <time>2021-04-27T16:27:29Z</time>
      </trkpt>
      <trkpt lat="47.48226" lon="-2.34265">
        <ele>37</ele>
        <time>2021-04-27T16:27:41Z</time>
      </trkpt>
      <trkpt lat="47.48226" lon="-2.34223">
        <ele>37</ele>
        <time>2021-04-27T16:27:43Z</time>
      </trkpt>
      <trkpt lat="47.48225" lon="-2.34218">
        <ele>37</ele>
        <time>2021-04-27T16:27:50Z</time>
      </trkpt>
      <trkpt lat="47.48237" lon="-2.34194">
        <ele>37</ele>
        <time>2021-04-27T16:28:06Z</time>
      </trkpt>
      <trkpt lat="47.48356" lon="-2.34083">
        <ele>36</ele>
        <time>2021-04-27T16:28:17Z</time>
      </trkpt>
      <trkpt lat="47.48444" lon="-2.33993">
        <ele>37</ele>
        <time>2021-04-27T16:28:29Z</time>
      </trkpt>
      <trkpt lat="47.48454" lon="-2.33965">
        <ele>37</ele>
        <time>2021-04-27T16:28:37Z</time>
      </trkpt>
      <trkpt lat="47.4844" lon="-2.33946">
        <ele>37</ele>
        <time>2021-04-27T16:28:45Z</time>
      </trkpt>
      <trkpt lat="47.48428" lon="-2.33909">
        <ele>37</ele>
        <time>2021-04-27T16:28:57Z</time>
      </trkpt>
      <trkpt lat="47.48356" lon="-2.33573">
        <ele>35.7</ele>
        <time>2021-04-27T16:29:13Z</time>
      </trkpt>
      <trkpt lat="47.48319" lon="-2.33458">
        <ele>34.5</ele>
        <time>2021-04-27T16:29:25Z</time>
      </trkpt>
      <trkpt lat="47.48305" lon="-2.334">
        <ele>35</ele>
        <time>2021-04-27T16:29:45Z</time>
      </trkpt>
      <trkpt lat="47.48279" lon="-2.33107">
        <ele>35</ele>
        <time>2021-04-27T16:29:52Z</time>
      </trkpt>
      <trkpt lat="47.48291" lon="-2.33028">
        <ele>34.5</ele>
        <time>2021-04-27T16:29:55Z</time>
      </trkpt>
      <trkpt lat="47.48302" lon="-2.32884">
        <ele>33.9</ele>
        <time>2021-04-27T16:30:13Z</time>
      </trkpt>
      <trkpt lat="47.48319" lon="-2.32791">
        <ele>32.7</ele>
        <time>2021-04-27T16:30:24Z</time>
      </trkpt>
      <trkpt lat="47.48335" lon="-2.32687">
        <ele>32</ele>
        <time>2021-04-27T16:30:41Z</time>
      </trkpt>
      <trkpt lat="47.48357" lon="-2.32624">
        <ele>32</ele>
        <time>2021-04-27T16:30:58Z</time>
      </trkpt>
      <trkpt lat="47.48382" lon="-2.32404">
        <ele>32</ele>
        <time>2021-04-27T16:31:18Z</time>
      </trkpt>
      <trkpt lat="47.48373" lon="-2.32287">
        <ele>32</ele>
        <time>2021-04-27T16:31:37Z</time>
      </trkpt>
      <trkpt lat="47.48372" lon="-2.32223">
        <ele>31.6</ele>
        <time>2021-04-27T16:31:51Z</time>
      </trkpt>
      <trkpt lat="47.48366" lon="-2.31995">
        <ele>32</ele>
        <time>2021-04-27T16:31:56Z</time>
      </trkpt>
      <trkpt lat="47.48402" lon="-2.31986">
        <ele>32</ele>
        <time>2021-04-27T16:32:07Z</time>
      </trkpt>
      <trkpt lat="47.48551" lon="-2.31966">
        <ele>29.2</ele>
        <time>2021-04-27T16:32:25Z</time>
      </trkpt>
      <trkpt lat="47.48616" lon="-2.31952">
        <ele>26.1</ele>
        <time>2021-04-27T16:32:34Z</time>
      </trkpt>
      <trkpt lat="47.4865" lon="-2.31938">
        <ele>24.4</ele>
        <time>2021-04-27T16:32:48Z</time>
      </trkpt>
      <trkpt lat="47.48813" lon="-2.31816">
        <ele>21.3</ele>
        <time>2021-04-27T16:33:05Z</time>
      </trkpt>
      <trkpt lat="47.48896" lon="-2.31757">
        <ele>23.1</ele>
        <time>2021-04-27T16:33:17Z</time>
      </trkpt>
      <trkpt lat="47.49085" lon="-2.31706">
        <ele>27</ele>
        <time>2021-04-27T16:33:31Z</time>
      </trkpt>
      <trkpt lat="47.49124" lon="-2.31678">
        <ele>27.8</ele>
        <time>2021-04-27T16:33:38Z</time>
      </trkpt>
      <trkpt lat="47.49256" lon="-2.31564">
        <ele>29</ele>
        <time>2021-04-27T16:33:47Z</time>
      </trkpt>
      <trkpt lat="47.49437" lon="-2.31319">
        <ele>34.4</ele>
        <time>2021-04-27T16:34:03Z</time>
      </trkpt>
      <trkpt lat="47.49478" lon="-2.31279">
        <ele>38.2</ele>
        <time>2021-04-27T16:34:23Z</time>
      </trkpt>
      <trkpt lat="47.49554" lon="-2.3121">
        <ele>39.6</ele>
        <time>2021-04-27T16:34:38Z</time>
      </trkpt>
      <trkpt lat="47.49621" lon="-2.3114">
        <ele>35.4</ele>
        <time>2021-04-27T16:34:41Z</time>
      </trkpt>
      <trkpt lat="47.4975" lon="-2.3096">
        <ele>29</ele>
        <time>2021-04-27T16:34:45Z</time>
      </trkpt>
      <trkpt lat="47.4979" lon="-2.30923">
        <ele>30.9</ele>
        <time>2021-04-27T16:35:03Z</time>
      </trkpt>
      <trkpt lat="47.49837" lon="-2.309">
        <ele>33</ele>
        <time>2021-04-27T16:35:15Z</time>
      </trkpt>
      <trkpt lat="47.49887" lon="-2.30888">
        <ele>33</ele>
        <time>2021-04-27T16:35:31Z</time>
      </trkpt>
      <trkpt lat="47.49928" lon="-2.30871">
        <ele>33.4</ele>
        <time>2021-04-27T16:35:38Z</time>
      </trkpt>
      <trkpt lat="47.4994" lon="-2.30859">
        <ele>33.2</ele>
        <time>2021-04-27T16:35:57Z</time>
      </trkpt>
      <trkpt lat="47.4995" lon="-2.30849">
        <ele>33.4</ele>
        <time>2021-04-27T16:36:03Z</time>
      </trkpt>
      <trkpt lat="47.49968" lon="-2.30814">
        <ele>33.1</ele>
        <time>2021-04-27T16:36:22Z</time>
      </trkpt>
      <trkpt lat="47.50003" lon="-2.307">
        <ele>34.7</ele>
        <time>2021-04-27T16:36:42Z</time>
      </trkpt>
      <trkpt lat="47.50031" lon="-2.30642">
        <ele>35</ele>
        <time>2021-04-27T16:36:56Z</time>
      </trkpt>
      <trkpt lat="47.50064" lon="-2.30588">
        <ele>35.7</ele>
        <time>2021-04-27T16:37:10Z</time>
      </trkpt>
      <trkpt lat="47.50083" lon="-2.30563">
        <ele>35.7</ele>
        <time>2021-04-27T16:37:20Z</time>
      </trkpt>
      <trkpt lat="47.50092" lon="-2.30552">
        <ele>36</ele>
        <time>2021-04-27T16:37:27Z</time>
      </trkpt>
      <trkpt lat="47.50125" lon="-2.30526">
        <ele>36</ele>
        <time>2021-04-27T16:37:34Z</time>
      </trkpt>
      <trkpt lat="47.50204" lon="-2.30504">
        <ele>37</ele>
        <time>2021-04-27T16:37:54Z</time>
      </trkpt>
      <trkpt lat="47.50242" lon="-2.30498">
        <ele>37.1</ele>
        <time>2021-04-27T16:38:11Z</time>
      </trkpt>
      <trkpt lat="47.50289" lon="-2.30503">
        <ele>38.4</ele>
        <time>2021-04-27T16:38:13Z</time>
      </trkpt>
      <trkpt lat="47.50317" lon="-2.30509">
        <ele>39</ele>
        <time>2021-04-27T16:38:25Z</time>
      </trkpt>
      <trkpt lat="47.50401" lon="-2.30527">
        <ele>40.4</ele>
        <time>2021-04-27T16:38:38Z</time>
      </trkpt>
      <trkpt lat="47.50413" lon="-2.30524">
        <ele>40.9</ele>
        <time>2021-04-27T16:38:49Z</time>
      </trkpt>
      <trkpt lat="47.50425" lon="-2.30517">
        <ele>40.9</ele>
        <time>2021-04-27T16:38:56Z</time>
      </trkpt>
      <trkpt lat="47.50428" lon="-2.30517">
        <ele>40.8</ele>
        <time>2021-04-27T16:39:02Z</time>
      </trkpt>
      <trkpt lat="47.50432" lon="-2.30519">
        <ele>40.8</ele>
        <time>2021-04-27T16:39:07Z</time>
      </trkpt>
      <trkpt lat="47.50439" lon="-2.30488">
        <ele>40.5</ele>
        <time>2021-04-27T16:39:17Z</time>
      </trkpt>
      <trkpt lat="47.50473" lon="-2.30367">
        <ele>40</ele>
        <time>2021-04-27T16:39:35Z</time>
      </trkpt>
      <trkpt lat="47.50516" lon="-2.30226">
        <ele>39</ele>
        <time>2021-04-27T16:39:42Z</time>
      </trkpt>
      <trkpt lat="47.50535" lon="-2.3018">
        <ele>38.7</ele>
        <time>2021-04-27T16:39:53Z</time>
      </trkpt>
      <trkpt lat="47.50542" lon="-2.30146">
        <ele>38.1</ele>
        <time>2021-04-27T16:39:56Z</time>
      </trkpt>
      <trkpt lat="47.50545" lon="-2.30128">
        <ele>38</ele>
        <time>2021-04-27T16:40:06Z</time>
      </trkpt>
      <trkpt lat="47.5055" lon="-2.30107">
        <ele>38.1</ele>
        <time>2021-04-27T16:40:09Z</time>
      </trkpt>
      <trkpt lat="47.50556" lon="-2.30103">
        <ele>38.3</ele>
        <time>2021-04-27T16:40:14Z</time>
      </trkpt>
      <trkpt lat="47.50561" lon="-2.30098">
        <ele>38.4</ele>
        <time>2021-04-27T16:40:29Z</time>
      </trkpt>
      <trkpt lat="47.50565" lon="-2.3009">
        <ele>38.5</ele>
        <time>2021-04-27T16:40:43Z</time>
      </trkpt>
      <trkpt lat="47.50567" lon="-2.30081">
        <ele>38.5</ele>
        <time>2021-04-27T16:40:51Z</time>
      </trkpt>
      <trkpt lat="47.50567" lon="-2.30071">
        <ele>38.3</ele>
        <time>2021-04-27T16:40:55Z</time>
      </trkpt>
      <trkpt lat="47.50566" lon="-2.30061">
        <ele>38.1</ele>
        <time>2021-04-27T16:41:14Z</time>
      </trkpt>
      <trkpt lat="47.50562" lon="-2.30053">
        <ele>38</ele>
        <time>2021-04-27T16:41:29Z</time>
      </trkpt>
      <trkpt lat="47.50578" lon="-2.30025">
        <ele>37.3</ele>
        <time>2021-04-27T16:41:46Z</time>
      </trkpt>
      <trkpt lat="47.50589" lon="-2.3">
        <ele>37.6</ele>
        <time>2021-04-27T16:41:49Z</time>
      </trkpt>
      <trkpt lat="47.50599" lon="-2.29955">
        <ele>37.5</ele>
        <time>2021-04-27T16:42:04Z</time>
      </trkpt>
      <trkpt lat="47.5061" lon="-2.29922">
        <ele>38</ele>
        <time>2021-04-27T16:42:06Z</time>
      </trkpt>
      <trkpt lat="47.50727" lon="-2.29591">
        <ele>39.2</ele>
        <time>2021-04-27T16:42:11Z</time>
      </trkpt>
      <trkpt lat="47.50723" lon="-2.29589">
        <ele>39</ele>
        <time>2021-04-27T16:42:19Z</time>
      </trkpt>
      <trkpt lat="47.5071" lon="-2.29587">
        <ele>39.4</ele>
        <time>2021-04-27T16:42:29Z</time>
      </trkpt>
      <trkpt lat="47.50696" lon="-2.29597">
        <ele>39.9</ele>
        <time>2021-04-27T16:42:37Z</time>
      </trkpt>
      <trkpt lat="47.50663" lon="-2.2964">
        <ele>39.3</ele>
        <time>2021-04-27T16:42:39Z</time>
      </trkpt>
      <trkpt lat="47.50649" lon="-2.29652">
        <ele>39.8</ele>
        <time>2021-04-27T16:42:56Z</time>
      </trkpt>
      <trkpt lat="47.506" lon="-2.29684">
        <ele>37.6</ele>
        <time>2021-04-27T16:43:15Z</time>
      </trkpt>
      <trkpt lat="47.50591" lon="-2.29562">
        <ele>38.9</ele>
        <time>2021-04-27T16:43:33Z</time>
      </trkpt>
      <trkpt lat="47.50588" lon="-2.29537">
        <ele>38.4</ele>
        <time>2021-04-27T16:43:46Z</time>
      </trkpt>
      <trkpt lat="47.50581" lon="-2.29528">
        <ele>37.9</ele>
        <time>2021-04-27T16:43:56Z</time>
      </trkpt>
      <trkpt lat="47.5055" lon="-2.29505">
        <ele>36.4</ele>
        <time>2021-04-27T16:43:58Z</time>
      </trkpt>
      <trkpt lat="47.50532" lon="-2.29498">
        <ele>35.3</ele>
        <time>2021-04-27T16:44:00Z</time>
      </trkpt>
      <trkpt lat="47.50528" lon="-2.29487">
        <ele>35</ele>
        <time>2021-04-27T16:44:02Z</time>
      </trkpt>
      <trkpt lat="47.50526" lon="-2.29432">
        <ele>34.5</ele>
        <time>2021-04-27T16:44:15Z</time>
      </trkpt>
      <trkpt lat="47.50508" lon="-2.2937">
        <ele>32.9</ele>
        <time>2021-04-27T16:44:32Z</time>
      </trkpt>
      <trkpt lat="47.5049" lon="-2.29322">
        <ele>31.8</ele>
        <time>2021-04-27T16:44:35Z</time>
      </trkpt>
      <trkpt lat="47.50481" lon="-2.29311">
        <ele>31.9</ele>
        <time>2021-04-27T16:44:41Z</time>
      </trkpt>
      <trkpt lat="47.50467" lon="-2.29309">
        <ele>32.1</ele>
        <time>2021-04-27T16:45:00Z</time>
      </trkpt>
      <trkpt lat="47.50416" lon="-2.29337">
        <ele>31.9</ele>
        <time>2021-04-27T16:45:02Z</time>
      </trkpt>
      <trkpt lat="47.50397" lon="-2.29353">
        <ele>31.3</ele>
        <time>2021-04-27T16:45:22Z</time>
      </trkpt>
      <trkpt lat="47.50381" lon="-2.29377">
        <ele>31.2</ele>
        <time>2021-04-27T16:45:38Z</time>
      </trkpt>
      <trkpt lat="47.50355" lon="-2.29426">
        <ele>31.3</ele>
        <time>2021-04-27T16:45:58Z</time>
      </trkpt>
      <trkpt lat="47.50328" lon="-2.29462">
        <ele>31</ele>
        <time>2021-04-27T16:46:18Z</time>
      </trkpt>
      <trkpt lat="47.50317" lon="-2.29472">
        <ele>31</ele>
        <time>2021-04-27T16:46:23Z</time>
      </trkpt>
      <trkpt lat="47.50295" lon="-2.29483">
        <ele>31.9</ele>
        <time>2021-04-27T16:46:34Z</time>
      </trkpt>
      <trkpt lat="47.50268" lon="-2.29487">
        <ele>32.5</ele>
        <time>2021-04-27T16:46:41Z</time>
      </trkpt>
      <trkpt lat="47.50212" lon="-2.2948">
        <ele>32.2</ele>
        <time>2021-04-27T16:46:52Z</time>
      </trkpt>
      <trkpt lat="47.50188" lon="-2.2948">
        <ele>32.1</ele>
        <time>2021-04-27T16:47:03Z</time>
      </trkpt>
      <trkpt lat="47.50178" lon="-2.29487">
        <ele>32</ele>
        <time>2021-04-27T16:47:15Z</time>
      </trkpt>
      <trkpt lat="47.50169" lon="-2.29496">
        <ele>31.3</ele>
        <time>2021-04-27T16:47:27Z</time>
      </trkpt>
      <trkpt lat="47.50131" lon="-2.29563">
        <ele>31</ele>
        <time>2021-04-27T16:47:44Z</time>
      </trkpt>
      <trkpt lat="47.50112" lon="-2.29586">
        <ele>30.9</ele>
        <time>2021-04-27T16:47:51Z</time>
      </trkpt>
      <trkpt lat="47.50096" lon="-2.29598">
        <ele>31.8</ele>
        <time>2021-04-27T16:47:54Z</time>
      </trkpt>
      <trkpt lat="47.50079" lon="-2.29607">
        <ele>31.5</ele>
        <time>2021-04-27T16:48:00Z</time>
      </trkpt>
      <trkpt lat="47.50063" lon="-2.29612">
        <ele>31</ele>
        <time>2021-04-27T16:48:20Z</time>
      </trkpt>
      <trkpt lat="47.50045" lon="-2.29613">
        <ele>31.4</ele>
        <time>2021-04-27T16:48:23Z</time>
      </trkpt>
      <trkpt lat="47.49768" lon="-2.29584">
        <ele>34</ele>
        <time>2021-04-27T16:48:29Z</time>
      </trkpt>
      <trkpt lat="47.49733" lon="-2.29574">
        <ele>33.8</ele>
        <time>2021-04-27T16:48:45Z</time>
      </trkpt>
      <trkpt lat="47.49725" lon="-2.29574">
        <ele>33.7</ele>
        <time>2021-04-27T16:49:03Z</time>
      </trkpt>
      <trkpt lat="47.49717" lon="-2.29579">
        <ele>34.1</ele>
        <time>2021-04-27T16:49:20Z</time>
      </trkpt>
      <trkpt lat="47.49707" lon="-2.29589">
        <ele>34.4</ele>
        <time>2021-04-27T16:49:38Z</time>
      </trkpt>
      <trkpt lat="47.49632" lon="-2.2969">
        <ele>35.4</ele>
        <time>2021-04-27T16:49:49Z</time>
      </trkpt>
      <trkpt lat="47.49625" lon="-2.29698">
        <ele>35</ele>
        <time>2021-04-27T16:49:55Z</time>
      </trkpt>
      <trkpt lat="47.49605" lon="-2.29703">
        <ele>35</ele>
        <time>2021-04-27T16:50:13Z</time>
      </trkpt>
      <trkpt lat="47.49595" lon="-2.29703">
        <ele>35</ele>
        <time>2021-04-27T16:50:29Z</time>
      </trkpt>
      <trkpt lat="47.49574" lon="-2.29693">
        <ele>35.5</ele>
        <time>2021-04-27T16:50:38Z</time>
      </trkpt>
      <trkpt lat="47.49554" lon="-2.29666">
        <ele>36</ele>
        <time>2021-04-27T16:50:41Z</time>
      </trkpt>
      <trkpt lat="47.49547" lon="-2.29652">
        <ele>36.4</ele>
        <time>2021-04-27T16:50:49Z</time>
      </trkpt>
      <trkpt lat="47.49534" lon="-2.29622">
        <ele>35.9</ele>
        <time>2021-04-27T16:51:06Z</time>
      </trkpt>
      <trkpt lat="47.49525" lon="-2.29585">
        <ele>35.8</ele>
        <time>2021-04-27T16:51:17Z</time>
      </trkpt>
      <trkpt lat="47.49482" lon="-2.29332">
        <ele>37.4</ele>
        <time>2021-04-27T16:51:34Z</time>
      </trkpt>
      <trkpt lat="47.4948" lon="-2.29306">
        <ele>36.7</ele>
        <time>2021-04-27T16:51:38Z</time>
      </trkpt>
      <trkpt lat="47.49481" lon="-2.29269">
        <ele>36.5</ele>
        <time>2021-04-27T16:51:42Z</time>
      </trkpt>
      <trkpt lat="47.49487" lon="-2.29216">
        <ele>35.4</ele>
        <time>2021-04-27T16:51:52Z</time>
      </trkpt>
      <trkpt lat="47.49499" lon="-2.29147">
        <ele>35</ele>
        <time>2021-04-27T16:51:58Z</time>
      </trkpt>
      <trkpt lat="47.49501" lon="-2.29133">
        <ele>35.1</ele>
        <time>2021-04-27T16:52:11Z</time>
      </trkpt>
      <trkpt lat="47.495" lon="-2.2912">
        <ele>35</ele>
        <time>2021-04-27T16:52:28Z</time>
      </trkpt>
      <trkpt lat="47.49583" lon="-2.29032">
        <ele>34.1</ele>
        <time>2021-04-27T16:52:44Z</time>
      </trkpt>
      <trkpt lat="47.49664" lon="-2.28934">
        <ele>32.7</ele>
        <time>2021-04-27T16:52:46Z</time>
      </trkpt>
      <trkpt lat="47.49693" lon="-2.28887">
        <ele>31.1</ele>
        <time>2021-04-27T16:52:49Z</time>
      </trkpt>
      <trkpt lat="47.49778" lon="-2.28735">
        <ele>29</ele>
        <time>2021-04-27T16:52:53Z</time>
      </trkpt>
      <trkpt lat="47.49802" lon="-2.28699">
        <ele>29.1</ele>
        <time>2021-04-27T16:53:07Z</time>
      </trkpt>
      <trkpt lat="47.49828" lon="-2.2868">
        <ele>30.2</ele>
        <time>2021-04-27T16:53:25Z</time>
      </trkpt>
      <trkpt lat="47.49899" lon="-2.28648">
        <ele>32.3</ele>
        <time>2021-04-27T16:53:45Z</time>
      </trkpt>
      <trkpt lat="47.4992" lon="-2.28627">
        <ele>32.2</ele>
        <time>2021-04-27T16:53:51Z</time>
      </trkpt>
      <trkpt lat="47.49998" lon="-2.28489">
        <ele>30</ele>
        <time>2021-04-27T16:53:54Z</time>
      </trkpt>
      <trkpt lat="47.50011" lon="-2.28457">
        <ele>31.1</ele>
        <time>2021-04-27T16:54:12Z</time>
      </trkpt>
      <trkpt lat="47.50018" lon="-2.28425">
        <ele>29.7</ele>
        <time>2021-04-27T16:54:26Z</time>
      </trkpt>
      <trkpt lat="47.50021" lon="-2.28385">
        <ele>29</ele>
        <time>2021-04-27T16:54:41Z</time>
      </trkpt>
      <trkpt lat="47.50039" lon="-2.27983">
        <ele>29</ele>
        <time>2021-04-27T16:54:53Z</time>
      </trkpt>
      <trkpt lat="47.5004" lon="-2.27927">
        <ele>28.2</ele>
        <time>2021-04-27T16:54:56Z</time>
      </trkpt>
      <trkpt lat="47.50037" lon="-2.27832">
        <ele>27.3</ele>
        <time>2021-04-27T16:55:09Z</time>
      </trkpt>
      <trkpt lat="47.50035" lon="-2.27801">
        <ele>26.9</ele>
        <time>2021-04-27T16:55:15Z</time>
      </trkpt>
      <trkpt lat="47.50024" lon="-2.27733">
        <ele>26</ele>
        <time>2021-04-27T16:55:31Z</time>
      </trkpt>
      <trkpt lat="47.50024" lon="-2.27708">
        <ele>26</ele>
        <time>2021-04-27T16:55:43Z</time>
      </trkpt>
      <trkpt lat="47.50031" lon="-2.27667">
        <ele>26.9</ele>
        <time>2021-04-27T16:55:58Z</time>
      </trkpt>
      <trkpt lat="47.5004" lon="-2.27638">
        <ele>26.6</ele>
        <time>2021-04-27T16:56:06Z</time>
      </trkpt>
      <trkpt lat="47.50067" lon="-2.27595">
        <ele>27</ele>
        <time>2021-04-27T16:56:09Z</time>
      </trkpt>
      <trkpt lat="47.5013" lon="-2.27527">
        <ele>27</ele>
        <time>2021-04-27T16:56:13Z</time>
      </trkpt>
      <trkpt lat="47.50142" lon="-2.2751">
        <ele>27</ele>
        <time>2021-04-27T16:56:16Z</time>
      </trkpt>
      <trkpt lat="47.50148" lon="-2.27494">
        <ele>27</ele>
        <time>2021-04-27T16:56:23Z</time>
      </trkpt>
      <trkpt lat="47.50151" lon="-2.27474">
        <ele>27</ele>
        <time>2021-04-27T16:56:42Z</time>
      </trkpt>
      <trkpt lat="47.50152" lon="-2.27454">
        <ele>26.7</ele>
        <time>2021-04-27T16:57:02Z</time>
      </trkpt>
      <trkpt lat="47.50146" lon="-2.27371">
        <ele>27</ele>
        <time>2021-04-27T16:57:09Z</time>
      </trkpt>
      <trkpt lat="47.5014" lon="-2.27368">
        <ele>27</ele>
        <time>2021-04-27T16:57:27Z</time>
      </trkpt>
      <trkpt lat="47.50125" lon="-2.27346">
        <ele>27.5</ele>
        <time>2021-04-27T16:57:43Z</time>
      </trkpt>
      <trkpt lat="47.50121" lon="-2.27333">
        <ele>28</ele>
        <time>2021-04-27T16:57:56Z</time>
      </trkpt>
      <trkpt lat="47.50118" lon="-2.27307">
        <ele>28</ele>
        <time>2021-04-27T16:58:14Z</time>
      </trkpt>
      <trkpt lat="47.5011" lon="-2.27125">
        <ele>32</ele>
        <time>2021-04-27T16:58:26Z</time>
      </trkpt>
      <trkpt lat="47.50107" lon="-2.27034">
        <ele>33.1</ele>
        <time>2021-04-27T16:58:44Z</time>
      </trkpt>
      <trkpt lat="47.50104" lon="-2.27019">
        <ele>33.3</ele>
        <time>2021-04-27T16:58:58Z</time>
      </trkpt>
      <trkpt lat="47.501" lon="-2.27011">
        <ele>33.4</ele>
        <time>2021-04-27T16:59:10Z</time>
      </trkpt>
      <trkpt lat="47.50093" lon="-2.27007">
        <ele>33.7</ele>
        <time>2021-04-27T16:59:28Z</time>
      </trkpt>
      <trkpt lat="47.50085" lon="-2.27007">
        <ele>34</ele>
        <time>2021-04-27T16:59:48Z</time>
      </trkpt>
      <trkpt lat="47.49832" lon="-2.27119">
        <ele>27</ele>
        <time>2021-04-27T16:59:59Z</time>
      </trkpt>
      <trkpt lat="47.4977" lon="-2.27142">
        <ele>26</ele>
        <time>2021-04-27T17:00:02Z</time>
      </trkpt>
      <trkpt lat="47.49721" lon="-2.27153">
        <ele>25</ele>
        <time>2021-04-27T17:00:17Z</time>
      </trkpt>
      <trkpt lat="47.49603" lon="-2.27173">
        <ele>20.7</ele>
        <time>2021-04-27T17:00:22Z</time>
      </trkpt>
      <trkpt lat="47.49583" lon="-2.27179">
        <ele>20</ele>
        <time>2021-04-27T17:00:25Z</time>
      </trkpt>
      <trkpt lat="47.49569" lon="-2.27189">
        <ele>19.9</ele>
        <time>2021-04-27T17:00:39Z</time>
      </trkpt>
      <trkpt lat="47.49528" lon="-2.2721">
        <ele>20</ele>
        <time>2021-04-27T17:00:49Z</time>
      </trkpt>
      <trkpt lat="47.49473" lon="-2.27227">
        <ele>21.3</ele>
        <time>2021-04-27T17:00:55Z</time>
      </trkpt>
      <trkpt lat="47.49438" lon="-2.27243">
        <ele>22.6</ele>
        <time>2021-04-27T17:01:02Z</time>
      </trkpt>
      <trkpt lat="47.49341" lon="-2.27305">
        <ele>24</ele>
        <time>2021-04-27T17:01:17Z</time>
      </trkpt>
      <trkpt lat="47.49323" lon="-2.27311">
        <ele>24.5</ele>
        <time>2021-04-27T17:01:19Z</time>
      </trkpt>
      <trkpt lat="47.49302" lon="-2.27313">
        <ele>25.1</ele>
        <time>2021-04-27T17:01:36Z</time>
      </trkpt>
      <trkpt lat="47.49292" lon="-2.27318">
        <ele>25.5</ele>
        <time>2021-04-27T17:01:43Z</time>
      </trkpt>
      <trkpt lat="47.4927" lon="-2.27345">
        <ele>26.3</ele>
        <time>2021-04-27T17:01:46Z</time>
      </trkpt>
      <trkpt lat="47.49253" lon="-2.2735">
        <ele>26.9</ele>
        <time>2021-04-27T17:01:51Z</time>
      </trkpt>
      <trkpt lat="47.49234" lon="-2.27346">
        <ele>27.6</ele>
        <time>2021-04-27T17:01:56Z</time>
      </trkpt>
      <trkpt lat="47.49221" lon="-2.27337">
        <ele>28</ele>
        <time>2021-04-27T17:02:09Z</time>
      </trkpt>
      <trkpt lat="47.49212" lon="-2.27324">
        <ele>28</ele>
        <time>2021-04-27T17:02:23Z</time>
      </trkpt>
      <trkpt lat="47.49206" lon="-2.27297">
        <ele>27.9</ele>
        <time>2021-04-27T17:02:30Z</time>
      </trkpt>
      <trkpt lat="47.49181" lon="-2.27126">
        <ele>28.3</ele>
        <time>2021-04-27T17:02:36Z</time>
      </trkpt>
      <trkpt lat="47.49144" lon="-2.2692">
        <ele>28.1</ele>
        <time>2021-04-27T17:02:45Z</time>
      </trkpt>
      <trkpt lat="47.49132" lon="-2.26889">
        <ele>28.2</ele>
        <time>2021-04-27T17:02:54Z</time>
      </trkpt>
      <trkpt lat="47.49112" lon="-2.26867">
        <ele>28.2</ele>
        <time>2021-04-27T17:02:59Z</time>
      </trkpt>
      <trkpt lat="47.49095" lon="-2.26863">
        <ele>28.1</ele>
        <time>2021-04-27T17:03:07Z</time>
      </trkpt>
      <trkpt lat="47.49065" lon="-2.2687">
        <ele>28.8</ele>
        <time>2021-04-27T17:03:23Z</time>
      </trkpt>
      <trkpt lat="47.48877" lon="-2.26943">
        <ele>28</ele>
        <time>2021-04-27T17:03:36Z</time>
      </trkpt>
      <trkpt lat="47.4879" lon="-2.26833">
        <ele>27.4</ele>
        <time>2021-04-27T17:03:46Z</time>
      </trkpt>
      <trkpt lat="47.48757" lon="-2.26767">
        <ele>27.1</ele>
        <time>2021-04-27T17:04:05Z</time>
      </trkpt>
      <trkpt lat="47.48744" lon="-2.2669">
        <ele>27</ele>
        <time>2021-04-27T17:04:09Z</time>
      </trkpt>
      <trkpt lat="47.48744" lon="-2.26651">
        <ele>27.6</ele>
        <time>2021-04-27T17:04:26Z</time>
      </trkpt>
      <trkpt lat="47.48747" lon="-2.26469">
        <ele>28.8</ele>
        <time>2021-04-27T17:04:41Z</time>
      </trkpt>
      <trkpt lat="47.4871" lon="-2.26359">
        <ele>26.5</ele>
        <time>2021-04-27T17:04:51Z</time>
      </trkpt>
      <trkpt lat="47.48704" lon="-2.26326">
        <ele>26</ele>
        <time>2021-04-27T17:05:01Z</time>
      </trkpt>
      <trkpt lat="47.48706" lon="-2.26213">
        <ele>25</ele>
        <time>2021-04-27T17:05:03Z</time>
      </trkpt>
      <trkpt lat="47.48714" lon="-2.26079">
        <ele>23.9</ele>
        <time>2021-04-27T17:05:10Z</time>
      </trkpt>
      <trkpt lat="47.48713" lon="-2.26067">
        <ele>23.6</ele>
        <time>2021-04-27T17:05:24Z</time>
      </trkpt>
      <trkpt lat="47.48737" lon="-2.26019">
        <ele>23</ele>
        <time>2021-04-27T17:05:39Z</time>
      </trkpt>
      <trkpt lat="47.48736" lon="-2.26005">
        <ele>23</ele>
        <time>2021-04-27T17:05:49Z</time>
      </trkpt>
      <trkpt lat="47.48738" lon="-2.25963">
        <ele>23</ele>
        <time>2021-04-27T17:06:00Z</time>
      </trkpt>
      <trkpt lat="47.48741" lon="-2.25942">
        <ele>22.9</ele>
        <time>2021-04-27T17:06:12Z</time>
      </trkpt>
      <trkpt lat="47.4875" lon="-2.25921">
        <ele>22.2</ele>
        <time>2021-04-27T17:06:30Z</time>
      </trkpt>
      <trkpt lat="47.48755" lon="-2.25916">
        <ele>22.2</ele>
        <time>2021-04-27T17:06:32Z</time>
      </trkpt>
      <trkpt lat="47.48808" lon="-2.25889">
        <ele>23.1</ele>
        <time>2021-04-27T17:06:46Z</time>
      </trkpt>
      <trkpt lat="47.48885" lon="-2.25747">
        <ele>21.8</ele>
        <time>2021-04-27T17:07:04Z</time>
      </trkpt>
      <trkpt lat="47.48896" lon="-2.25719">
        <ele>21.2</ele>
        <time>2021-04-27T17:07:14Z</time>
      </trkpt>
      <trkpt lat="47.48901" lon="-2.257">
        <ele>21.1</ele>
        <time>2021-04-27T17:07:26Z</time>
      </trkpt>
      <trkpt lat="47.48908" lon="-2.25643">
        <ele>20.1</ele>
        <time>2021-04-27T17:07:45Z</time>
      </trkpt>
      <trkpt lat="47.48916" lon="-2.25618">
        <ele>19.2</ele>
        <time>2021-04-27T17:08:04Z</time>
      </trkpt>
      <trkpt lat="47.48941" lon="-2.25567">
        <ele>17.5</ele>
        <time>2021-04-27T17:08:11Z</time>
      </trkpt>
      <trkpt lat="47.49033" lon="-2.25384">
        <ele>16</ele>
        <time>2021-04-27T17:08:25Z</time>
      </trkpt>
      <trkpt lat="47.48976" lon="-2.25299">
        <ele>15.4</ele>
        <time>2021-04-27T17:08:33Z</time>
      </trkpt>
      <trkpt lat="47.48909" lon="-2.2519">
        <ele>15.8</ele>
        <time>2021-04-27T17:08:40Z</time>
      </trkpt>
      <trkpt lat="47.4888" lon="-2.25125">
        <ele>15.8</ele>
        <time>2021-04-27T17:08:56Z</time>
      </trkpt>
      <trkpt lat="47.48821" lon="-2.24974">
        <ele>16</ele>
        <time>2021-04-27T17:09:15Z</time>
      </trkpt>
      <trkpt lat="47.48803" lon="-2.24935">
        <ele>16</ele>
        <time>2021-04-27T17:09:30Z</time>
      </trkpt>
      <trkpt lat="47.48771" lon="-2.24878">
        <ele>16</ele>
        <time>2021-04-27T17:09:32Z</time>
      </trkpt>
      <trkpt lat="47.48748" lon="-2.24845">
        <ele>16</ele>
        <time>2021-04-27T17:09:41Z</time>
      </trkpt>
      <trkpt lat="47.48722" lon="-2.24814">
        <ele>16.7</ele>
        <time>2021-04-27T17:09:59Z</time>
      </trkpt>
      <trkpt lat="47.48571" lon="-2.24631">
        <ele>18</ele>
        <time>2021-04-27T17:10:02Z</time>
      </trkpt>
      <trkpt lat="47.4844" lon="-2.24467">
        <ele>19.3</ele>
        <time>2021-04-27T17:10:20Z</time>
      </trkpt>
      <trkpt lat="47.48421" lon="-2.24506">
        <ele>19.8</ele>
        <time>2021-04-27T17:10:35Z</time>
      </trkpt>
      <trkpt lat="47.48403" lon="-2.24622">
        <ele>20.2</ele>
        <time>2021-04-27T17:10:48Z</time>
      </trkpt>
      <trkpt lat="47.48388" lon="-2.24922">
        <ele>22</ele>
        <time>2021-04-27T17:11:06Z</time>
      </trkpt>
      <trkpt lat="47.4839" lon="-2.24968">
        <ele>22</ele>
        <time>2021-04-27T17:11:09Z</time>
      </trkpt>
      <trkpt lat="47.48385" lon="-2.24989">
        <ele>22.2</ele>
        <time>2021-04-27T17:11:13Z</time>
      </trkpt>
      <trkpt lat="47.48365" lon="-2.2502">
        <ele>23</ele>
        <time>2021-04-27T17:11:26Z</time>
      </trkpt>
      <trkpt lat="47.48306" lon="-2.25044">
        <ele>22</ele>
        <time>2021-04-27T17:11:28Z</time>
      </trkpt>
      <trkpt lat="47.48297" lon="-2.25067">
        <ele>21.4</ele>
        <time>2021-04-27T17:11:30Z</time>
      </trkpt>
      <trkpt lat="47.48272" lon="-2.25085">
        <ele>20.7</ele>
        <time>2021-04-27T17:11:38Z</time>
      </trkpt>
      <trkpt lat="47.48248" lon="-2.25085">
        <ele>19.9</ele>
        <time>2021-04-27T17:11:49Z</time>
      </trkpt>
      <trkpt lat="47.48176" lon="-2.25067">
        <ele>19.6</ele>
        <time>2021-04-27T17:12:07Z</time>
      </trkpt>
      <trkpt lat="47.48082" lon="-2.25048">
        <ele>20</ele>
        <time>2021-04-27T17:12:27Z</time>
      </trkpt>
      <trkpt lat="47.48054" lon="-2.2505">
        <ele>18.9</ele>
        <time>2021-04-27T17:12:40Z</time>
      </trkpt>
      <trkpt lat="47.47958" lon="-2.25095">
        <ele>15</ele>
        <time>2021-04-27T17:12:43Z</time>
      </trkpt>
      <trkpt lat="47.47938" lon="-2.25095">
        <ele>15</ele>
        <time>2021-04-27T17:12:45Z</time>
      </trkpt>
      <trkpt lat="47.47915" lon="-2.25065">
        <ele>14.4</ele>
        <time>2021-04-27T17:12:55Z</time>
      </trkpt>
      <trkpt lat="47.479" lon="-2.25058">
        <ele>14.1</ele>
        <time>2021-04-27T17:13:02Z</time>
      </trkpt>
      <trkpt lat="47.47878" lon="-2.25062">
        <ele>14.5</ele>
        <time>2021-04-27T17:13:19Z</time>
      </trkpt>
      <trkpt lat="47.47712" lon="-2.25134">
        <ele>15.2</ele>
        <time>2021-04-27T17:13:25Z</time>
      </trkpt>
      <trkpt lat="47.47569" lon="-2.25178">
        <ele>15</ele>
        <time>2021-04-27T17:13:31Z</time>
      </trkpt>
      <trkpt lat="47.47449" lon="-2.25231">
        <ele>15.3</ele>
        <time>2021-04-27T17:13:37Z</time>
      </trkpt>
      <trkpt lat="47.47413" lon="-2.25229">
        <ele>14.9</ele>
        <time>2021-04-27T17:13:55Z</time>
      </trkpt>
      <trkpt lat="47.4738" lon="-2.25211">
        <ele>13.7</ele>
        <time>2021-04-27T17:14:09Z</time>
      </trkpt>
      <trkpt lat="47.47364" lon="-2.25178">
        <ele>12.5</ele>
        <time>2021-04-27T17:14:27Z</time>
      </trkpt>
      <trkpt lat="47.47346" lon="-2.25147">
        <ele>11.1</ele>
        <time>2021-04-27T17:14:32Z</time>
      </trkpt>
      <trkpt lat="47.47323" lon="-2.25138">
        <ele>9.3</ele>
        <time>2021-04-27T17:14:37Z</time>
      </trkpt>
      <trkpt lat="47.47298" lon="-2.25125">
        <ele>7.5</ele>
        <time>2021-04-27T17:14:46Z</time>
      </trkpt>
      <trkpt lat="47.47278" lon="-2.25102">
        <ele>6</ele>
        <time>2021-04-27T17:14:49Z</time>
      </trkpt>
      <trkpt lat="47.4726" lon="-2.25089">
        <ele>5.3</ele>
        <time>2021-04-27T17:14:57Z</time>
      </trkpt>
      <trkpt lat="47.47241" lon="-2.25088">
        <ele>5.3</ele>
        <time>2021-04-27T17:15:03Z</time>
      </trkpt>
      <trkpt lat="47.47191" lon="-2.25091">
        <ele>5.7</ele>
        <time>2021-04-27T17:15:10Z</time>
      </trkpt>
      <trkpt lat="47.47171" lon="-2.25063">
        <ele>5.8</ele>
        <time>2021-04-27T17:15:22Z</time>
      </trkpt>
      <trkpt lat="47.4709" lon="-2.24962">
        <ele>9.4</ele>
        <time>2021-04-27T17:15:33Z</time>
      </trkpt>
      <trkpt lat="47.4707" lon="-2.24943">
        <ele>10</ele>
        <time>2021-04-27T17:15:52Z</time>
      </trkpt>
      <trkpt lat="47.47037" lon="-2.24945">
        <ele>10</ele>
        <time>2021-04-27T17:16:05Z</time>
      </trkpt>
      <trkpt lat="47.47019" lon="-2.24959">
        <ele>10</ele>
        <time>2021-04-27T17:16:24Z</time>
      </trkpt>
      <trkpt lat="47.46986" lon="-2.24969">
        <ele>9.6</ele>
        <time>2021-04-27T17:16:35Z</time>
      </trkpt>
      <trkpt lat="47.46937" lon="-2.24952">
        <ele>9</ele>
        <time>2021-04-27T17:16:50Z</time>
      </trkpt>
      <trkpt lat="47.46828" lon="-2.24987">
        <ele>7.4</ele>
        <time>2021-04-27T17:17:09Z</time>
      </trkpt>
      <trkpt lat="47.46751" lon="-2.24986">
        <ele>6.5</ele>
        <time>2021-04-27T17:17:21Z</time>
      </trkpt>
      <trkpt lat="47.46678" lon="-2.25015">
        <ele>5.2</ele>
        <time>2021-04-27T17:17:29Z</time>
      </trkpt>
      <trkpt lat="47.46664" lon="-2.25015">
        <ele>5</ele>
        <time>2021-04-27T17:17:35Z</time>
      </trkpt>
      <trkpt lat="47.46646" lon="-2.25009">
        <ele>4.8</ele>
        <time>2021-04-27T17:17:44Z</time>
      </trkpt>
      <trkpt lat="47.46616" lon="-2.24995">
        <ele>4.2</ele>
        <time>2021-04-27T17:18:04Z</time>
      </trkpt>
      <trkpt lat="47.46637" lon="-2.24902">
        <ele>4.9</ele>
        <time>2021-04-27T17:18:15Z</time>
      </trkpt>
      <trkpt lat="47.46667" lon="-2.24746">
        <ele>5</ele>
        <time>2021-04-27T17:18:27Z</time>
      </trkpt>
      <trkpt lat="47.46691" lon="-2.24625">
        <ele>5.4</ele>
        <time>2021-04-27T17:18:46Z</time>
      </trkpt>
      <trkpt lat="47.46703" lon="-2.24582">
        <ele>5.3</ele>
        <time>2021-04-27T17:18:51Z</time>
      </trkpt>
      <trkpt lat="47.4672" lon="-2.24544">
        <ele>5.9</ele>
        <time>2021-04-27T17:18:53Z</time>
      </trkpt>
      <trkpt lat="47.46751" lon="-2.24498">
        <ele>6</ele>
        <time>2021-04-27T17:19:13Z</time>
      </trkpt>
      <trkpt lat="47.46772" lon="-2.24485">
        <ele>6</ele>
        <time>2021-04-27T17:19:26Z</time>
      </trkpt>
      <trkpt lat="47.46917" lon="-2.2442">
        <ele>7</ele>
        <time>2021-04-27T17:19:33Z</time>
      </trkpt>
      <trkpt lat="47.46936" lon="-2.24409">
        <ele>6.9</ele>
        <time>2021-04-27T17:19:37Z</time>
      </trkpt>
      <trkpt lat="47.4695" lon="-2.24396">
        <ele>7</ele>
        <time>2021-04-27T17:19:49Z</time>
      </trkpt>
      <trkpt lat="47.46963" lon="-2.24379">
        <ele>6.6</ele>
        <time>2021-04-27T17:20:01Z</time>
      </trkpt>
      <trkpt lat="47.46971" lon="-2.24351">
        <ele>6</ele>
        <time>2021-04-27T17:20:19Z</time>
      </trkpt>
      <trkpt lat="47.46974" lon="-2.2433">
        <ele>6</ele>
        <time>2021-04-27T17:20:36Z</time>
      </trkpt>
      <trkpt lat="47.46974" lon="-2.24294">
        <ele>6.4</ele>
        <time>2021-04-27T17:20:41Z</time>
      </trkpt>
      <trkpt lat="47.46962" lon="-2.24142">
        <ele>8</ele>
        <time>2021-04-27T17:20:46Z</time>
      </trkpt>
      <trkpt lat="47.46962" lon="-2.24081">
        <ele>8.6</ele>
        <time>2021-04-27T17:21:02Z</time>
      </trkpt>
      <trkpt lat="47.46964" lon="-2.24047">
        <ele>8.9</ele>
        <time>2021-04-27T17:21:13Z</time>
      </trkpt>
      <trkpt lat="47.46963" lon="-2.23969">
        <ele>9.7</ele>
        <time>2021-04-27T17:21:22Z</time>
      </trkpt>
      <trkpt lat="47.46958" lon="-2.23928">
        <ele>9.8</ele>
        <time>2021-04-27T17:21:32Z</time>
      </trkpt>
      <trkpt lat="47.46928" lon="-2.23792">
        <ele>10.1</ele>
        <time>2021-04-27T17:21:49Z</time>
      </trkpt>
      <trkpt lat="47.46924" lon="-2.23753">
        <ele>10.3</ele>
        <time>2021-04-27T17:21:53Z</time>
      </trkpt>
      <trkpt lat="47.46923" lon="-2.23703">
        <ele>10.3</ele>
        <time>2021-04-27T17:21:59Z</time>
      </trkpt>
      <trkpt lat="47.46927" lon="-2.23656">
        <ele>9.9</ele>
        <time>2021-04-27T17:22:17Z</time>
      </trkpt>
      <trkpt lat="47.46936" lon="-2.23616">
        <ele>9</ele>
        <time>2021-04-27T17:22:32Z</time>
      </trkpt>
      <trkpt lat="47.46957" lon="-2.23543">
        <ele>8.5</ele>
        <time>2021-04-27T17:22:47Z</time>
      </trkpt>
      <trkpt lat="47.46964" lon="-2.23497">
        <ele>9</ele>
        <time>2021-04-27T17:23:01Z</time>
      </trkpt>
      <trkpt lat="47.46966" lon="-2.23451">
        <ele>9</ele>
        <time>2021-04-27T17:23:14Z</time>
      </trkpt>
      <trkpt lat="47.46961" lon="-2.23404">
        <ele>9.3</ele>
        <time>2021-04-27T17:23:24Z</time>
      </trkpt>
      <trkpt lat="47.46948" lon="-2.23354">
        <ele>8.5</ele>
        <time>2021-04-27T17:23:26Z</time>
      </trkpt>
      <trkpt lat="47.46893" lon="-2.23139">
        <ele>7.2</ele>
        <time>2021-04-27T17:23:28Z</time>
      </trkpt>
      <trkpt lat="47.4689" lon="-2.23112">
        <ele>7</ele>
        <time>2021-04-27T17:23:41Z</time>
      </trkpt>
      <trkpt lat="47.4689" lon="-2.23083">
        <ele>6</ele>
        <time>2021-04-27T17:23:47Z</time>
      </trkpt>
      <trkpt lat="47.46896" lon="-2.23033">
        <ele>6.3</ele>
        <time>2021-04-27T17:24:01Z</time>
      </trkpt>
      <trkpt lat="47.46929" lon="-2.22928">
        <ele>7.8</ele>
        <time>2021-04-27T17:24:12Z</time>
      </trkpt>
      <trkpt lat="47.46944" lon="-2.22805">
        <ele>8</ele>
        <time>2021-04-27T17:24:20Z</time>
      </trkpt>
      <trkpt lat="47.46944" lon="-2.22765">
        <ele>8.5</ele>
        <time>2021-04-27T17:24:30Z</time>
      </trkpt>
      <trkpt lat="47.46942" lon="-2.22729">
        <ele>9.6</ele>
        <time>2021-04-27T17:24:45Z</time>
      </trkpt>
      <trkpt lat="47.46939" lon="-2.22708">
        <ele>9.7</ele>
        <time>2021-04-27T17:24:58Z</time>
      </trkpt>
      <trkpt lat="47.46897" lon="-2.22518">
        <ele>9</ele>
        <time>2021-04-27T17:25:02Z</time>
      </trkpt>
      <trkpt lat="47.46896" lon="-2.225">
        <ele>9</ele>
        <time>2021-04-27T17:25:08Z</time>
      </trkpt>
      <trkpt lat="47.46897" lon="-2.22494">
        <ele>8.9</ele>
        <time>2021-04-27T17:25:20Z</time>
      </trkpt>
      <trkpt lat="47.46876" lon="-2.22468">
        <ele>9</ele>
        <time>2021-04-27T17:25:27Z</time>
      </trkpt>
      <trkpt lat="47.46834" lon="-2.22409">
        <ele>9</ele>
        <time>2021-04-27T17:25:41Z</time>
      </trkpt>
      <trkpt lat="47.46806" lon="-2.22361">
        <ele>8</ele>
        <time>2021-04-27T17:25:51Z</time>
      </trkpt>
      <trkpt lat="47.4678" lon="-2.22312">
        <ele>7.2</ele>
        <time>2021-04-27T17:26:03Z</time>
      </trkpt>
      <trkpt lat="47.46757" lon="-2.22259">
        <ele>7.1</ele>
        <time>2021-04-27T17:26:06Z</time>
      </trkpt>
      <trkpt lat="47.46696" lon="-2.22108">
        <ele>5.9</ele>
        <time>2021-04-27T17:26:24Z</time>
      </trkpt>
      <trkpt lat="47.46668" lon="-2.22044">
        <ele>6.4</ele>
        <time>2021-04-27T17:26:34Z</time>
      </trkpt>
      <trkpt lat="47.4665" lon="-2.22009">
        <ele>6.5</ele>
        <time>2021-04-27T17:26:44Z</time>
      </trkpt>
      <trkpt lat="47.46637" lon="-2.21988">
        <ele>7</ele>
        <time>2021-04-27T17:27:00Z</time>
      </trkpt>
      <trkpt lat="47.46629" lon="-2.2197">
        <ele>7.3</ele>
        <time>2021-04-27T17:27:13Z</time>
      </trkpt>
      <trkpt lat="47.46625" lon="-2.21955">
        <ele>7.5</ele>
        <time>2021-04-27T17:27:32Z</time>
      </trkpt>
      <trkpt lat="47.46628" lon="-2.21932">
        <ele>7.7</ele>
        <time>2021-04-27T17:27:43Z</time>
      </trkpt>
      <trkpt lat="47.46633" lon="-2.21917">
        <ele>8</ele>
        <time>2021-04-27T17:28:01Z</time>
      </trkpt>
      <trkpt lat="47.46656" lon="-2.21879">
        <ele>7.6</ele>
        <time>2021-04-27T17:28:03Z</time>
      </trkpt>
      <trkpt lat="47.46667" lon="-2.21852">
        <ele>8</ele>
        <time>2021-04-27T17:28:16Z</time>
      </trkpt>
      <trkpt lat="47.46688" lon="-2.21759">
        <ele>8.8</ele>
        <time>2021-04-27T17:28:30Z</time>
      </trkpt>
      <trkpt lat="47.46744" lon="-2.21466">
        <ele>12.8</ele>
        <time>2021-04-27T17:28:48Z</time>
      </trkpt>
      <trkpt lat="47.46762" lon="-2.2139">
        <ele>13</ele>
        <time>2021-04-27T17:28:59Z</time>
      </trkpt>
      <trkpt lat="47.46867" lon="-2.20987">
        <ele>13</ele>
        <time>2021-04-27T17:29:01Z</time>
      </trkpt>
      <trkpt lat="47.46891" lon="-2.20876">
        <ele>12</ele>
        <time>2021-04-27T17:29:16Z</time>
      </trkpt>
      <trkpt lat="47.47075" lon="-2.20975">
        <ele>8.3</ele>
        <time>2021-04-27T17:29:36Z</time>
      </trkpt>
      <trkpt lat="47.47121" lon="-2.2101">
        <ele>8</ele>
        <time>2021-04-27T17:29:43Z</time>
      </trkpt>
      <trkpt lat="47.47143" lon="-2.21048">
        <ele>8</ele>
        <time>2021-04-27T17:29:54Z</time>
      </trkpt>
      <trkpt lat="47.47154" lon="-2.21059">
        <ele>8</ele>
        <time>2021-04-27T17:30:01Z</time>
      </trkpt>
      <trkpt lat="47.47167" lon="-2.21063">
        <ele>8</ele>
        <time>2021-04-27T17:30:11Z</time>
      </trkpt>
      <trkpt lat="47.47185" lon="-2.21061">
        <ele>8.6</ele>
        <time>2021-04-27T17:30:31Z</time>
      </trkpt>
      <trkpt lat="47.47225" lon="-2.21046">
        <ele>9.1</ele>
        <time>2021-04-27T17:30:44Z</time>
      </trkpt>
      <trkpt lat="47.47259" lon="-2.21025">
        <ele>10.3</ele>
        <time>2021-04-27T17:31:00Z</time>
      </trkpt>
      <trkpt lat="47.4734" lon="-2.20956">
        <ele>14.5</ele>
        <time>2021-04-27T17:31:14Z</time>
      </trkpt>
      <trkpt lat="47.47357" lon="-2.20949">
        <ele>15.7</ele>
        <time>2021-04-27T17:31:33Z</time>
      </trkpt>
      <trkpt lat="47.47387" lon="-2.20947">
        <ele>17.9</ele>
        <time>2021-04-27T17:31:47Z</time>
      </trkpt>
      <trkpt lat="47.47399" lon="-2.20941">
        <ele>18.3</ele>
        <time>2021-04-27T17:31:52Z</time>
      </trkpt>
      <trkpt lat="47.47426" lon="-2.20913">
        <ele>19.3</ele>
        <time>2021-04-27T17:31:58Z</time>
      </trkpt>
      <trkpt lat="47.47436" lon="-2.20906">
        <ele>19.7</ele>
        <time>2021-04-27T17:32:15Z</time>
      </trkpt>
      <trkpt lat="47.47447" lon="-2.20902">
        <ele>20</ele>
        <time>2021-04-27T17:32:19Z</time>
      </trkpt>
      <trkpt lat="47.47462" lon="-2.20904">
        <ele>20</ele>
        <time>2021-04-27T17:32:22Z</time>
      </trkpt>
      <trkpt lat="47.47504" lon="-2.2092">
        <ele>20.1</ele>
        <time>2021-04-27T17:32:33Z</time>
      </trkpt>
      <trkpt lat="47.47525" lon="-2.20921">
        <ele>20.1</ele>
        <time>2021-04-27T17:32:49Z</time>
      </trkpt>
      <trkpt lat="47.47616" lon="-2.20911">
        <ele>21</ele>
        <time>2021-04-27T17:32:51Z</time>
      </trkpt>
      <trkpt lat="47.47639" lon="-2.20903">
        <ele>21.5</ele>
        <time>2021-04-27T17:32:59Z</time>
      </trkpt>
      <trkpt lat="47.47687" lon="-2.20879">
        <ele>19.7</ele>
        <time>2021-04-27T17:33:16Z</time>
      </trkpt>
      <trkpt lat="47.47741" lon="-2.20855">
        <ele>20.5</ele>
        <time>2021-04-27T17:33:29Z</time>
      </trkpt>
      <trkpt lat="47.47796" lon="-2.2084">
        <ele>21.9</ele>
        <time>2021-04-27T17:33:34Z</time>
      </trkpt>
      <trkpt lat="47.47834" lon="-2.20834">
        <ele>23</ele>
        <time>2021-04-27T17:33:51Z</time>
      </trkpt>
      <trkpt lat="47.47882" lon="-2.20842">
        <ele>22</ele>
        <time>2021-04-27T17:34:09Z</time>
      </trkpt>
      <trkpt lat="47.47902" lon="-2.20837">
        <ele>21.5</ele>
        <time>2021-04-27T17:34:25Z</time>
      </trkpt>
      <trkpt lat="47.47924" lon="-2.20821">
        <ele>20.8</ele>
        <time>2021-04-27T17:34:40Z</time>
      </trkpt>
      <trkpt lat="47.47942" lon="-2.20804">
        <ele>21</ele>
        <time>2021-04-27T17:34:43Z</time>
      </trkpt>
      <trkpt lat="47.48028" lon="-2.20797">
        <ele>20.3</ele>
        <time>2021-04-27T17:34:57Z</time>
      </trkpt>
      <trkpt lat="47.48045" lon="-2.20792">
        <ele>20.5</ele>
        <time>2021-04-27T17:34:59Z</time>
      </trkpt>
      <trkpt lat="47.48056" lon="-2.20786">
        <ele>20.7</ele>
        <time>2021-04-27T17:35:12Z</time>
      </trkpt>
      <trkpt lat="47.48238" lon="-2.2067">
        <ele>23.9</ele>
        <time>2021-04-27T17:35:23Z</time>
      </trkpt>
      <trkpt lat="47.48255" lon="-2.20649">
        <ele>23.9</ele>
        <time>2021-04-27T17:35:35Z</time>
      </trkpt>
      <trkpt lat="47.48296" lon="-2.20567">
        <ele>24.2</ele>
        <time>2021-04-27T17:35:55Z</time>
      </trkpt>
      <trkpt lat="47.48449" lon="-2.20295">
        <ele>29.2</ele>
        <time>2021-04-27T17:36:00Z</time>
      </trkpt>
      <trkpt lat="47.48485" lon="-2.20259">
        <ele>30.3</ele>
        <time>2021-04-27T17:36:09Z</time>
      </trkpt>
      <trkpt lat="47.48492" lon="-2.20285">
        <ele>30</ele>
        <time>2021-04-27T17:36:18Z</time>
      </trkpt>
      <trkpt lat="47.48534" lon="-2.2053">
        <ele>26.7</ele>
        <time>2021-04-27T17:36:24Z</time>
      </trkpt>
      <trkpt lat="47.48552" lon="-2.20674">
        <ele>23</ele>
        <time>2021-04-27T17:36:28Z</time>
      </trkpt>
      <trkpt lat="47.48565" lon="-2.20826">
        <ele>19.5</ele>
        <time>2021-04-27T17:36:37Z</time>
      </trkpt>
      <trkpt lat="47.48569" lon="-2.20908">
        <ele>17.8</ele>
        <time>2021-04-27T17:36:54Z</time>
      </trkpt>
      <trkpt lat="47.48572" lon="-2.21013">
        <ele>16.9</ele>
        <time>2021-04-27T17:37:04Z</time>
      </trkpt>
      <trkpt lat="47.48572" lon="-2.2108">
        <ele>16.6</ele>
        <time>2021-04-27T17:37:18Z</time>
      </trkpt>
      <trkpt lat="47.48562" lon="-2.21688">
        <ele>19.8</ele>
        <time>2021-04-27T17:37:24Z</time>
      </trkpt>
      <trkpt lat="47.48564" lon="-2.21743">
        <ele>20.7</ele>
        <time>2021-04-27T17:37:38Z</time>
      </trkpt>
      <trkpt lat="47.48569" lon="-2.21819">
        <ele>22.3</ele>
        <time>2021-04-27T17:37:52Z</time>
      </trkpt>
      <trkpt lat="47.48576" lon="-2.21882">
        <ele>23.7</ele>
        <time>2021-04-27T17:38:07Z</time>
      </trkpt>
      <trkpt lat="47.48585" lon="-2.21934">
        <ele>24.7</ele>
        <time>2021-04-27T17:38:20Z</time>
      </trkpt>
      <trkpt lat="47.48594" lon="-2.21978">
        <ele>26.1</ele>
        <time>2021-04-27T17:38:22Z</time>
      </trkpt>
      <trkpt lat="47.4858" lon="-2.21985">
        <ele>26.1</ele>
        <time>2021-04-27T17:38:26Z</time>
      </trkpt>
      <trkpt lat="47.48579" lon="-2.21993">
        <ele>26.1</ele>
        <time>2021-04-27T17:38:33Z</time>
      </trkpt>
      <trkpt lat="47.48607" lon="-2.22113">
        <ele>25.9</ele>
        <time>2021-04-27T17:38:48Z</time>
      </trkpt>
      <trkpt lat="47.48549" lon="-2.22143">
        <ele>30.6</ele>
        <time>2021-04-27T17:39:03Z</time>
      </trkpt>
      <trkpt lat="47.48538" lon="-2.22145">
        <ele>31.5</ele>
        <time>2021-04-27T17:39:06Z</time>
      </trkpt>
      <trkpt lat="47.48525" lon="-2.22141">
        <ele>32.2</ele>
        <time>2021-04-27T17:39:14Z</time>
      </trkpt>
      <trkpt lat="47.48518" lon="-2.22132">
        <ele>32.3</ele>
        <time>2021-04-27T17:39:27Z</time>
      </trkpt>
      <trkpt lat="47.48482" lon="-2.22062">
        <ele>31.8</ele>
        <time>2021-04-27T17:39:47Z</time>
      </trkpt>
      <trkpt lat="47.48474" lon="-2.2205">
        <ele>31.8</ele>
        <time>2021-04-27T17:40:02Z</time>
      </trkpt>
      <trkpt lat="47.48465" lon="-2.22044">
        <ele>31.8</ele>
        <time>2021-04-27T17:40:18Z</time>
      </trkpt>
      <trkpt lat="47.48444" lon="-2.22049">
        <ele>32.8</ele>
        <time>2021-04-27T17:40:20Z</time>
      </trkpt>
      <trkpt lat="47.4836" lon="-2.22092">
        <ele>37.3</ele>
        <time>2021-04-27T17:40:39Z</time>
      </trkpt>
      <trkpt lat="47.48351" lon="-2.22102">
        <ele>37.4</ele>
        <time>2021-04-27T17:40:47Z</time>
      </trkpt>
      <trkpt lat="47.48377" lon="-2.22166">
        <ele>38</ele>
        <time>2021-04-27T17:41:05Z</time>
      </trkpt>
      <trkpt lat="47.48419" lon="-2.22291">
        <ele>41.1</ele>
        <time>2021-04-27T17:41:25Z</time>
      </trkpt>
      <trkpt lat="47.48447" lon="-2.22373">
        <ele>42.1</ele>
        <time>2021-04-27T17:41:28Z</time>
      </trkpt>
      <trkpt lat="47.48446" lon="-2.22387">
        <ele>42.1</ele>
        <time>2021-04-27T17:41:38Z</time>
      </trkpt>
      <trkpt lat="47.48431" lon="-2.22381">
        <ele>41.5</ele>
        <time>2021-04-27T17:41:55Z</time>
      </trkpt>
      <trkpt lat="47.48408" lon="-2.22382">
        <ele>40.7</ele>
        <time>2021-04-27T17:41:57Z</time>
      </trkpt>
      <trkpt lat="47.48306" lon="-2.22418">
        <ele>36</ele>
        <time>2021-04-27T17:42:14Z</time>
      </trkpt>
      <trkpt lat="47.48221" lon="-2.22468">
        <ele>31.9</ele>
        <time>2021-04-27T17:42:34Z</time>
      </trkpt>
      <trkpt lat="47.48183" lon="-2.22459">
        <ele>29.9</ele>
        <time>2021-04-27T17:42:47Z</time>
      </trkpt>
      <trkpt lat="47.48165" lon="-2.22442">
        <ele>28.9</ele>
        <time>2021-04-27T17:43:07Z</time>
      </trkpt>
      <trkpt lat="47.48114" lon="-2.22367">
        <ele>27.2</ele>
        <time>2021-04-27T17:43:16Z</time>
      </trkpt>
      <trkpt lat="47.48092" lon="-2.22311">
        <ele>25.7</ele>
        <time>2021-04-27T17:43:30Z</time>
      </trkpt>
      <trkpt lat="47.48077" lon="-2.22295">
        <ele>24.8</ele>
        <time>2021-04-27T17:43:42Z</time>
      </trkpt>
      <trkpt lat="47.48059" lon="-2.22284">
        <ele>24.1</ele>
        <time>2021-04-27T17:43:56Z</time>
      </trkpt>
      <trkpt lat="47.48046" lon="-2.22272">
        <ele>23.4</ele>
        <time>2021-04-27T17:44:16Z</time>
      </trkpt>
      <trkpt lat="47.48038" lon="-2.22247">
        <ele>22.2</ele>
        <time>2021-04-27T17:44:36Z</time>
      </trkpt>
      <trkpt lat="47.47991" lon="-2.22167">
        <ele>18.7</ele>
        <time>2021-04-27T17:44:43Z</time>
      </trkpt>
      <trkpt lat="47.47959" lon="-2.22123">
        <ele>16.2</ele>
        <time>2021-04-27T17:44:49Z</time>
      </trkpt>
      <trkpt lat="47.47916" lon="-2.22105">
        <ele>14</ele>
        <time>2021-04-27T17:44:52Z</time>
      </trkpt>
      <trkpt lat="47.47877" lon="-2.22113">
        <ele>13</ele>
        <time>2021-04-27T17:45:05Z</time>
      </trkpt>
      <trkpt lat="47.47849" lon="-2.22131">
        <ele>12.6</ele>
        <time>2021-04-27T17:45:18Z</time>
      </trkpt>
      <trkpt lat="47.47838" lon="-2.22153">
        <ele>12.3</ele>
        <time>2021-04-27T17:45:24Z</time>
      </trkpt>
      <trkpt lat="47.47833" lon="-2.2217">
        <ele>12.1</ele>
        <time>2021-04-27T17:45:27Z</time>
      </trkpt>
      <trkpt lat="47.47827" lon="-2.22263">
        <ele>12.8</ele>
        <time>2021-04-27T17:45:45Z</time>
      </trkpt>
      <trkpt lat="47.47818" lon="-2.22347">
        <ele>12.5</ele>
        <time>2021-04-27T17:45:49Z</time>
      </trkpt>
      <trkpt lat="47.47799" lon="-2.22401">
        <ele>13</ele>
        <time>2021-04-27T17:46:05Z</time>
      </trkpt>
      <trkpt lat="47.47796" lon="-2.22463">
        <ele>13.7</ele>
        <time>2021-04-27T17:46:19Z</time>
      </trkpt>
      <trkpt lat="47.47809" lon="-2.22604">
        <ele>13.3</ele>
        <time>2021-04-27T17:46:21Z</time>
      </trkpt>
      <trkpt lat="47.4782" lon="-2.22675">
        <ele>12.4</ele>
        <time>2021-04-27T17:46:36Z</time>
      </trkpt>
      <trkpt lat="47.47834" lon="-2.22733">
        <ele>12</ele>
        <time>2021-04-27T17:46:47Z</time>
      </trkpt>
      <trkpt lat="47.47839" lon="-2.22752">
        <ele>12</ele>
        <time>2021-04-27T17:46:53Z</time>
      </trkpt>
      <trkpt lat="47.4784" lon="-2.22808">
        <ele>12</ele>
        <time>2021-04-27T17:47:00Z</time>
      </trkpt>
      <trkpt lat="47.47835" lon="-2.2295">
        <ele>11</ele>
        <time>2021-04-27T17:47:18Z</time>
      </trkpt>
      <trkpt lat="47.47841" lon="-2.22982">
        <ele>11</ele>
        <time>2021-04-27T17:47:30Z</time>
      </trkpt>
      <trkpt lat="47.47854" lon="-2.23017">
        <ele>11.4</ele>
        <time>2021-04-27T17:47:49Z</time>
      </trkpt>
      <trkpt lat="47.47853" lon="-2.23034">
        <ele>11.7</ele>
        <time>2021-04-27T17:48:09Z</time>
      </trkpt>
      <trkpt lat="47.47876" lon="-2.23048">
        <ele>12</ele>
        <time>2021-04-27T17:48:27Z</time>
      </trkpt>
      <trkpt lat="47.47901" lon="-2.23057">
        <ele>12</ele>
        <time>2021-04-27T17:48:38Z</time>
      </trkpt>
      <trkpt lat="47.47928" lon="-2.2305">
        <ele>12</ele>
        <time>2021-04-27T17:48:57Z</time>
      </trkpt>
      <trkpt lat="47.48051" lon="-2.22994">
        <ele>14.9</ele>
        <time>2021-04-27T17:49:15Z</time>
      </trkpt>
      <trkpt lat="47.48158" lon="-2.22917">
        <ele>19.7</ele>
        <time>2021-04-27T17:49:19Z</time>
      </trkpt>
      <trkpt lat="47.48176" lon="-2.2291">
        <ele>20.3</ele>
        <time>2021-04-27T17:49:37Z</time>
      </trkpt>
      <trkpt lat="47.48211" lon="-2.22901">
        <ele>21.4</ele>
        <time>2021-04-27T17:49:47Z</time>
      </trkpt>
      <trkpt lat="47.48453" lon="-2.23325">
        <ele>26.6</ele>
        <time>2021-04-27T17:49:57Z</time>
      </trkpt>
      <trkpt lat="47.48464" lon="-2.23331">
        <ele>27.4</ele>
        <time>2021-04-27T17:50:10Z</time>
      </trkpt>
      <trkpt lat="47.48472" lon="-2.23327">
        <ele>28</ele>
        <time>2021-04-27T17:50:27Z</time>
      </trkpt>
      <trkpt lat="47.48485" lon="-2.23307">
        <ele>28.4</ele>
        <time>2021-04-27T17:50:45Z</time>
      </trkpt>
      <trkpt lat="47.48505" lon="-2.23282">
        <ele>29.2</ele>
        <time>2021-04-27T17:50:59Z</time>
      </trkpt>
      <trkpt lat="47.48538" lon="-2.23256">
        <ele>31.2</ele>
        <time>2021-04-27T17:51:15Z</time>
      </trkpt>
      <trkpt lat="47.48601" lon="-2.23205">
        <ele>34</ele>
        <time>2021-04-27T17:51:29Z</time>
      </trkpt>
      <trkpt lat="47.4861" lon="-2.23188">
        <ele>34.9</ele>
        <time>2021-04-27T17:51:35Z</time>
      </trkpt>
      <trkpt lat="47.48612" lon="-2.23171">
        <ele>35</ele>
        <time>2021-04-27T17:51:54Z</time>
      </trkpt>
      <trkpt lat="47.48606" lon="-2.23096">
        <ele>35.2</ele>
        <time>2021-04-27T17:52:08Z</time>
      </trkpt>
      <trkpt lat="47.4861" lon="-2.23079">
        <ele>35.9</ele>
        <time>2021-04-27T17:52:20Z</time>
      </trkpt>
      <trkpt lat="47.48622" lon="-2.23062">
        <ele>36.4</ele>
        <time>2021-04-27T17:52:31Z</time>
      </trkpt>
      <trkpt lat="47.48795" lon="-2.23036">
        <ele>40.6</ele>
        <time>2021-04-27T17:52:50Z</time>
      </trkpt>
      <trkpt lat="47.48793" lon="-2.22958">
        <ele>40.3</ele>
        <time>2021-04-27T17:53:03Z</time>
      </trkpt>
      <trkpt lat="47.48778" lon="-2.22879">
        <ele>40</ele>
        <time>2021-04-27T17:53:15Z</time>
      </trkpt>
      <trkpt lat="47.48772" lon="-2.22827">
        <ele>39</ele>
        <time>2021-04-27T17:53:22Z</time>
      </trkpt>
      <trkpt lat="47.48764" lon="-2.22759">
        <ele>37.8</ele>
        <time>2021-04-27T17:53:39Z</time>
      </trkpt>
      <trkpt lat="47.48776" lon="-2.22765">
        <ele>37.6</ele>
        <time>2021-04-27T17:53:46Z</time>
      </trkpt>
      <trkpt lat="47.48786" lon="-2.22783">
        <ele>38.2</ele>
        <time>2021-04-27T17:53:51Z</time>
      </trkpt>
      <trkpt lat="47.48813" lon="-2.22875">
        <ele>39.4</ele>
        <time>2021-04-27T17:53:56Z</time>
      </trkpt>
      <trkpt lat="47.48826" lon="-2.22909">
        <ele>39.8</ele>
        <time>2021-04-27T17:54:00Z</time>
      </trkpt>
      <trkpt lat="47.48854" lon="-2.22994">
        <ele>41.8</ele>
        <time>2021-04-27T17:54:02Z</time>
      </trkpt>
      <trkpt lat="47.49267" lon="-2.24159">
        <ele>41.7</ele>
        <time>2021-04-27T17:54:04Z</time>
      </trkpt>
      <trkpt lat="47.49452" lon="-2.24643">
        <ele>38.6</ele>
        <time>2021-04-27T17:54:13Z</time>
      </trkpt>
      <trkpt lat="47.4947" lon="-2.2469">
        <ele>37.5</ele>
        <time>2021-04-27T17:54:19Z</time>
      </trkpt>
      <trkpt lat="47.49513" lon="-2.24654">
        <ele>40.4</ele>
        <time>2021-04-27T17:54:35Z</time>
      </trkpt>
      <trkpt lat="47.49519" lon="-2.24641">
        <ele>40.7</ele>
        <time>2021-04-27T17:54:40Z</time>
      </trkpt>
      <trkpt lat="47.49521" lon="-2.2463">
        <ele>40.4</ele>
        <time>2021-04-27T17:54:44Z</time>
      </trkpt>
      <trkpt lat="47.49517" lon="-2.24612">
        <ele>40.4</ele>
        <time>2021-04-27T17:55:04Z</time>
      </trkpt>
      <trkpt lat="47.49497" lon="-2.24567">
        <ele>42.2</ele>
        <time>2021-04-27T17:55:24Z</time>
      </trkpt>
      <trkpt lat="47.49408" lon="-2.24344">
        <ele>45.8</ele>
        <time>2021-04-27T17:55:40Z</time>
      </trkpt>
      <trkpt lat="47.49429" lon="-2.24321">
        <ele>48.1</ele>
        <time>2021-04-27T17:55:56Z</time>
      </trkpt>
      <trkpt lat="47.49446" lon="-2.24297">
        <ele>49.4</ele>
        <time>2021-04-27T17:56:12Z</time>
      </trkpt>
      <trkpt lat="47.49464" lon="-2.24266">
        <ele>50.7</ele>
        <time>2021-04-27T17:56:23Z</time>
      </trkpt>
      <trkpt lat="47.495" lon="-2.24114">
        <ele>48.1</ele>
        <time>2021-04-27T17:56:32Z</time>
      </trkpt>
      <trkpt lat="47.49542" lon="-2.23991">
        <ele>47.3</ele>
        <time>2021-04-27T17:56:46Z</time>
      </trkpt>
      <trkpt lat="47.49666" lon="-2.23682">
        <ele>41.5</ele>
        <time>2021-04-27T17:56:59Z</time>
      </trkpt>
      <trkpt lat="47.49677" lon="-2.23661">
        <ele>41.3</ele>
        <time>2021-04-27T17:57:18Z</time>
      </trkpt>
      <trkpt lat="47.49689" lon="-2.23653">
        <ele>41.4</ele>
        <time>2021-04-27T17:57:34Z</time>
      </trkpt>
      <trkpt lat="47.4971" lon="-2.23651">
        <ele>41.4</ele>
        <time>2021-04-27T17:57:36Z</time>
      </trkpt>
      <trkpt lat="47.49721" lon="-2.23656">
        <ele>41.6</ele>
        <time>2021-04-27T17:57:48Z</time>
      </trkpt>
      <trkpt lat="47.49748" lon="-2.23678">
        <ele>42</ele>
        <time>2021-04-27T17:58:00Z</time>
      </trkpt>
      <trkpt lat="47.49752" lon="-2.23685">
        <ele>42</ele>
        <time>2021-04-27T17:58:06Z</time>
      </trkpt>
      <trkpt lat="47.49749" lon="-2.23709">
        <ele>42</ele>
        <time>2021-04-27T17:58:08Z</time>
      </trkpt>
      <trkpt lat="47.49744" lon="-2.23723">
        <ele>42</ele>
        <time>2021-04-27T17:58:18Z</time>
      </trkpt>
      <trkpt lat="47.49745" lon="-2.23744">
        <ele>42.8</ele>
        <time>2021-04-27T17:58:37Z</time>
      </trkpt>
      <trkpt lat="47.49752" lon="-2.23756">
        <ele>42.9</ele>
        <time>2021-04-27T17:58:42Z</time>
      </trkpt>
      <trkpt lat="47.49779" lon="-2.23774">
        <ele>42</ele>
        <time>2021-04-27T17:58:53Z</time>
      </trkpt>
      <trkpt lat="47.49882" lon="-2.23835">
        <ele>38.2</ele>
        <time>2021-04-27T17:59:03Z</time>
      </trkpt>
      <trkpt lat="47.50429" lon="-2.24157">
        <ele>45</ele>
        <time>2021-04-27T17:59:23Z</time>
      </trkpt>
      <trkpt lat="47.50622" lon="-2.24268">
        <ele>43.6</ele>
        <time>2021-04-27T17:59:25Z</time>
      </trkpt>
      <trkpt lat="47.50651" lon="-2.24129">
        <ele>43.6</ele>
        <time>2021-04-27T17:59:33Z</time>
      </trkpt>
      <trkpt lat="47.50673" lon="-2.24005">
        <ele>43.8</ele>
        <time>2021-04-27T17:59:52Z</time>
      </trkpt>
      <trkpt lat="47.50679" lon="-2.23956">
        <ele>44.3</ele>
        <time>2021-04-27T18:00:02Z</time>
      </trkpt>
      <trkpt lat="47.50902" lon="-2.24072">
        <ele>37</ele>
        <time>2021-04-27T18:00:11Z</time>
      </trkpt>
      <trkpt lat="47.50933" lon="-2.241">
        <ele>36.4</ele>
        <time>2021-04-27T18:00:26Z</time>
      </trkpt>
      <trkpt lat="47.50979" lon="-2.24166">
        <ele>35</ele>
        <time>2021-04-27T18:00:28Z</time>
      </trkpt>
      <trkpt lat="47.50994" lon="-2.2418">
        <ele>35</ele>
        <time>2021-04-27T18:00:33Z</time>
      </trkpt>
      <trkpt lat="47.51011" lon="-2.24197">
        <ele>35</ele>
        <time>2021-04-27T18:00:39Z</time>
      </trkpt>
      <trkpt lat="47.51037" lon="-2.24208">
        <ele>35</ele>
        <time>2021-04-27T18:00:50Z</time>
      </trkpt>
      <trkpt lat="47.51072" lon="-2.24197">
        <ele>35.5</ele>
        <time>2021-04-27T18:01:08Z</time>
      </trkpt>
      <trkpt lat="47.51167" lon="-2.2414">
        <ele>40</ele>
        <time>2021-04-27T18:01:24Z</time>
      </trkpt>
      <trkpt lat="47.51188" lon="-2.24131">
        <ele>40.8</ele>
        <time>2021-04-27T18:01:39Z</time>
      </trkpt>
      <trkpt lat="47.51217" lon="-2.24135">
        <ele>41.1</ele>
        <time>2021-04-27T18:01:49Z</time>
      </trkpt>
      <trkpt lat="47.51257" lon="-2.24162">
        <ele>41.4</ele>
        <time>2021-04-27T18:01:57Z</time>
      </trkpt>
      <trkpt lat="47.51332" lon="-2.24231">
        <ele>41.6</ele>
        <time>2021-04-27T18:02:09Z</time>
      </trkpt>
      <trkpt lat="47.51374" lon="-2.24275">
        <ele>41.1</ele>
        <time>2021-04-27T18:02:12Z</time>
      </trkpt>
      <trkpt lat="47.51622" lon="-2.24691">
        <ele>39.9</ele>
        <time>2021-04-27T18:02:20Z</time>
      </trkpt>
      <trkpt lat="47.51854" lon="-2.25108">
        <ele>38</ele>
        <time>2021-04-27T18:02:39Z</time>
      </trkpt>
      <trkpt lat="47.51966" lon="-2.25302">
        <ele>38.8</ele>
        <time>2021-04-27T18:02:58Z</time>
      </trkpt>
      <trkpt lat="47.5198" lon="-2.25317">
        <ele>38.7</ele>
        <time>2021-04-27T18:03:07Z</time>
      </trkpt>
      <trkpt lat="47.52033" lon="-2.25419">
        <ele>38</ele>
        <time>2021-04-27T18:03:19Z</time>
      </trkpt>
      <trkpt lat="47.52069" lon="-2.25533">
        <ele>36.9</ele>
        <time>2021-04-27T18:03:23Z</time>
      </trkpt>
      <trkpt lat="47.52087" lon="-2.25556">
        <ele>37</ele>
        <time>2021-04-27T18:03:34Z</time>
      </trkpt>
      <trkpt lat="47.52122" lon="-2.25572">
        <ele>37</ele>
        <time>2021-04-27T18:03:46Z</time>
      </trkpt>
      <trkpt lat="47.52168" lon="-2.2559">
        <ele>36</ele>
        <time>2021-04-27T18:04:06Z</time>
      </trkpt>
      <trkpt lat="47.52239" lon="-2.25593">
        <ele>34.8</ele>
        <time>2021-04-27T18:04:13Z</time>
      </trkpt>
      <trkpt lat="47.52267" lon="-2.25595">
        <ele>33.8</ele>
        <time>2021-04-27T18:04:29Z</time>
      </trkpt>
      <trkpt lat="47.52325" lon="-2.25606">
        <ele>32.8</ele>
        <time>2021-04-27T18:04:41Z</time>
      </trkpt>
      <trkpt lat="47.5235" lon="-2.25629">
        <ele>32.4</ele>
        <time>2021-04-27T18:04:55Z</time>
      </trkpt>
      <trkpt lat="47.52371" lon="-2.25657">
        <ele>31.7</ele>
        <time>2021-04-27T18:05:11Z</time>
      </trkpt>
      <trkpt lat="47.52396" lon="-2.25674">
        <ele>30.5</ele>
        <time>2021-04-27T18:05:30Z</time>
      </trkpt>
      <trkpt lat="47.52413" lon="-2.25674">
        <ele>29.9</ele>
        <time>2021-04-27T18:05:45Z</time>
      </trkpt>
      <trkpt lat="47.52452" lon="-2.25645">
        <ele>29.5</ele>
        <time>2021-04-27T18:06:01Z</time>
      </trkpt>
      <trkpt lat="47.52585" lon="-2.25513">
        <ele>24.9</ele>
        <time>2021-04-27T18:06:15Z</time>
      </trkpt>
      <trkpt lat="47.52742" lon="-2.25632">
        <ele>25</ele>
        <time>2021-04-27T18:06:19Z</time>
      </trkpt>
      <trkpt lat="47.52853" lon="-2.25672">
        <ele>26.1</ele>
        <time>2021-04-27T18:06:31Z</time>
      </trkpt>
      <trkpt lat="47.52911" lon="-2.25702">
        <ele>27</ele>
        <time>2021-04-27T18:06:33Z</time>
      </trkpt>
      <trkpt lat="47.52935" lon="-2.25726">
        <ele>27.6</ele>
        <time>2021-04-27T18:06:40Z</time>
      </trkpt>
      <trkpt lat="47.52953" lon="-2.25753">
        <ele>27.4</ele>
        <time>2021-04-27T18:06:53Z</time>
      </trkpt>
      <trkpt lat="47.52973" lon="-2.25792">
        <ele>28</ele>
        <time>2021-04-27T18:07:10Z</time>
      </trkpt>
      <trkpt lat="47.52977" lon="-2.25805">
        <ele>28</ele>
        <time>2021-04-27T18:07:17Z</time>
      </trkpt>
      <trkpt lat="47.53" lon="-2.25844">
        <ele>28.4</ele>
        <time>2021-04-27T18:07:20Z</time>
      </trkpt>
      <trkpt lat="47.53034" lon="-2.25892">
        <ele>29</ele>
        <time>2021-04-27T18:07:33Z</time>
      </trkpt>
    </trkseg>
  </trk>
</gpx>